Observation data for Amarillo 15 North Northwest on 06/03/2020      Previous  Date  Next       Current Mesonet Observations  Soil Data  Daily Summary Page  Observations in Plain Language
KAM3 030500Z 27006KT 24/12 A3008 RMK A01 T02410123  RH  048%=      5-min Rain = 0
KAM3 030501Z 27006KT 24/12 A3008 RMK A01 T02400122  RH  047%=      5-min Rain = 0
KAM3 030502Z 26005KT 24/12 A3008 RMK A01 T02400121  RH  047%=      5-min Rain = 0
KAM3 030503Z 26005KT 24/12 A3008 RMK A01 T02400121  RH  047%=      5-min Rain = 0
KAM3 030504Z 25005KT 24/12 A3008 RMK A01 T02390120  RH  047%=      5-min Rain = 0
KAM3 030505Z 24005KT 24/12 A3008 RMK A01 T02380120  RH  047%=      5-min Rain = 0
KAM3 030506Z 24006KT 24/12 A3008 RMK A01 T02370120  RH  048%=      5-min Rain = 0
KAM3 030507Z 23006KT 24/12 A3008 RMK A01 T02370119  RH  048%=      5-min Rain = 0
KAM3 030508Z 23005KT 24/12 A3008 RMK A01 T02370119  RH  048%=      5-min Rain = 0
KAM3 030509Z 22005KT 24/12 A3008 RMK A01 T02380119  RH  047%=      5-min Rain = 0
KAM3 030510Z 21005KT 24/12 A3008 RMK A01 T02390119  RH  047%=      5-min Rain = 0
KAM3 030511Z 20005KT 24/12 A3008 RMK A01 T02390120  RH  047%=      5-min Rain = 0
KAM3 030512Z 19004KT 24/12 A3008 RMK A01 T02380119  RH  047%=      5-min Rain = 0
KAM3 030513Z 20005KT 24/12 A3008 RMK A01 T02370119  RH  047%=      5-min Rain = 0
KAM3 030514Z 21004KT 24/12 A3008 RMK A01 T02370119  RH  047%=      5-min Rain = 0
KAM3 030515Z 20004KT 24/12 A3008 RMK A01 T02370119  RH  047%=      5-min Rain = 0
KAM3 030516Z 21004KT 24/12 A3008 RMK A01 T02370119  RH  047%=      5-min Rain = 0
KAM3 030517Z 22004KT 24/12 A3008 RMK A01 T02370119  RH  047%=      5-min Rain = 0
KAM3 030518Z 22004KT 24/12 A3008 RMK A01 T02360119  RH  048%=      5-min Rain = 0
KAM3 030519Z 22004KT 24/12 A3008 RMK A01 T02350118  RH  048%=      5-min Rain = 0
KAM3 030520Z 23003KT 24/12 A3008 RMK A01 T02350119  RH  048%=      5-min Rain = 0
KAM3 030521Z 23004KT 24/12 A3008 RMK A01 T02350119  RH  048%=      5-min Rain = 0
KAM3 030522Z 23004KT 23/12 A3008 RMK A01 T02340119  RH  048%=      5-min Rain = 0
KAM3 030523Z 23003KT 23/12 A3008 RMK A01 T02340119  RH  048%=      5-min Rain = 0
KAM3 030524Z 24003KT 23/12 A3008 RMK A01 T02330119  RH  049%=      5-min Rain = 0
KAM3 030525Z 24003KT 23/12 A3008 RMK A01 T02320119  RH  049%=      5-min Rain = 0
KAM3 030526Z 24003KT 23/12 A3008 RMK A01 T02310119  RH  049%=      5-min Rain = 0
KAM3 030527Z 25003KT 23/12 A3008 RMK A01 T02310119  RH  049%=      5-min Rain = 0
KAM3 030528Z 26003KT 23/12 A3008 RMK A01 T02300119  RH  049%=      5-min Rain = 0
KAM3 030529Z 26003KT 23/12 A3008 RMK A01 T02300119  RH  049%=      5-min Rain = 0
KAM3 030530Z 25003KT 23/12 A3008 RMK A01 T02300119  RH  049%=      5-min Rain = 0
KAM3 030531Z 24003KT 23/12 A3008 RMK A01 T02300119  RH  049%=      5-min Rain = 0
KAM3 030532Z 24003KT 23/12 A3008 RMK A01 T02300119  RH  050%=      5-min Rain = 0
KAM3 030533Z 24003KT 23/12 A3008 RMK A01 T02290119  RH  050%=      5-min Rain = 0
KAM3 030534Z 24004KT 23/12 A3008 RMK A01 T02280119  RH  050%=      5-min Rain = 0
KAM3 030535Z 23004KT 23/12 A3008 RMK A01 T02280119  RH  050%=      5-min Rain = 0
KAM3 030536Z 23004KT 23/12 A3008 RMK A01 T02270118  RH  050%=      5-min Rain = 0
KAM3 030537Z 23003KT 23/12 A3008 RMK A01 T02260119  RH  051%=      5-min Rain = 0
KAM3 030538Z 22004KT 23/12 A3008 RMK A01 T02250118  RH  051%=      5-min Rain = 0
KAM3 030539Z 22005KT 22/12 A3008 RMK A01 T02240118  RH  051%=      5-min Rain = 0
KAM3 030540Z 22005KT 22/12 A3008 RMK A01 T02230118  RH  051%=      5-min Rain = 0
KAM3 030541Z 22005KT 22/12 A3008 RMK A01 T02220119  RH  052%=      5-min Rain = 0
KAM3 030542Z 21005KT 22/12 A3008 RMK A01 T02220119  RH  052%=      5-min Rain = 0
KAM3 030543Z 21005KT 22/12 A3008 RMK A01 T02210119  RH  052%=      5-min Rain = 0
KAM3 030544Z 21005KT 22/12 A3008 RMK A01 T02210119  RH  052%=      5-min Rain = 0
KAM3 030545Z 21006KT 22/12 A3008 RMK A01 T02200119  RH  053%=      5-min Rain = 0
KAM3 030546Z 21006KT 22/12 A3008 RMK A01 T02190119  RH  053%=      5-min Rain = 0
KAM3 030547Z 21006KT 22/12 A3008 RMK A01 T02190119  RH  053%=      5-min Rain = 0
KAM3 030548Z 21006KT 22/12 A3008 RMK A01 T02190119  RH  053%=      5-min Rain = 0
KAM3 030549Z 21006KT 22/12 A3008 RMK A01 T02190119  RH  053%=      5-min Rain = 0
KAM3 030550Z 20006KT 22/12 A3008 RMK A01 T02190120  RH  053%=      5-min Rain = 0
KAM3 030551Z 20007KT 22/12 A3008 RMK A01 T02190120  RH  053%=      5-min Rain = 0
KAM3 030552Z 20006KT 22/12 A3008 RMK A01 T02180120  RH  053%=      5-min Rain = 0
KAM3 030553Z 20006KT 22/12 A3007 RMK A01 T02180120  RH  053%=      5-min Rain = 0
KAM3 030554Z 19006KT 22/12 A3007 RMK A01 T02190120  RH  053%=      5-min Rain = 0
KAM3 030555Z 19007KT 22/12 A3007 RMK A01 T02200120  RH  053%=      5-min Rain = 0
KAM3 030556Z 20008KT 22/12 A3007 RMK A01 T02200120  RH  053%=      5-min Rain = 0
KAM3 030557Z 20008KT 22/12 A3007 RMK A01 T02210120  RH  053%=      5-min Rain = 0
KAM3 030558Z 20007KT 22/12 A3007 RMK A01 T02210121  RH  053%=      5-min Rain = 0
KAM3 030559Z 20007KT 22/12 A3007 RMK A01 T02220121  RH  053%=      5-min Rain = 0
KAM3 030600Z 20008KT 22/12 A3007 RMK A01 T02220121  RH  053%=      5-min Rain = 0
KAM3 030601Z 19008KT 22/12 A3007 RMK A01 T02220122  RH  053%=      5-min Rain = 0
KAM3 030602Z 19008KT 22/12 A3007 RMK A01 T02220122  RH  053%=      5-min Rain = 0
KAM3 030603Z 19008KT 22/12 A3007 RMK A01 T02230123  RH  053%=      5-min Rain = 0
KAM3 030604Z 19008KT 22/12 A3007 RMK A01 T02240123  RH  053%=      5-min Rain = 0
KAM3 030605Z 19009KT 23/12 A3007 RMK A01 T02250124  RH  053%=      5-min Rain = 0
KAM3 030606Z 20009KT 23/12 A3007 RMK A01 T02260124  RH  053%=      5-min Rain = 0
KAM3 030607Z 19008KT 23/12 A3007 RMK A01 T02260124  RH  052%=      5-min Rain = 0
KAM3 030608Z 19008KT 23/12 A3007 RMK A01 T02260124  RH  052%=      5-min Rain = 0
KAM3 030609Z 19008KT 23/12 A3007 RMK A01 T02260124  RH  053%=      5-min Rain = 0
KAM3 030610Z 20008KT 23/12 A3007 RMK A01 T02260124  RH  053%=      5-min Rain = 0
KAM3 030611Z 19009KT 23/12 A3007 RMK A01 T02250124  RH  053%=      5-min Rain = 0
KAM3 030612Z 19008KT 23/12 A3007 RMK A01 T02250124  RH  053%=      5-min Rain = 0
KAM3 030613Z 19009KT 23/12 A3007 RMK A01 T02250124  RH  053%=      5-min Rain = 0
KAM3 030614Z 19009KT 23/13 A3007 RMK A01 T02250125  RH  053%=      5-min Rain = 0
KAM3 030615Z 19009KT 23/13 A3007 RMK A01 T02250125  RH  053%=      5-min Rain = 0
KAM3 030616Z 19010KT 23/13 A3007 RMK A01 T02250125  RH  053%=      5-min Rain = 0
KAM3 030617Z 19010KT 23/13 A3007 RMK A01 T02260126  RH  053%=      5-min Rain = 0
KAM3 030618Z 19010KT 23/13 A3007 RMK A01 T02270126  RH  053%=      5-min Rain = 0
KAM3 030619Z 19011KT 23/13 A3007 RMK A01 T02270127  RH  053%=      5-min Rain = 0
KAM3 030620Z 19010KT 23/13 A3006 RMK A01 T02270127  RH  053%=      5-min Rain = 0
KAM3 030621Z 19010KT 23/13 A3006 RMK A01 T02280127  RH  053%=      5-min Rain = 0
KAM3 030622Z 18010KT 23/13 A3006 RMK A01 T02270127  RH  053%=      5-min Rain = 0
KAM3 030623Z 18010KT 23/13 A3006 RMK A01 T02270127  RH  053%=      5-min Rain = 0
KAM3 030624Z 18011KT 23/13 A3006 RMK A01 T02260126  RH  053%=      5-min Rain = 0
KAM3 030625Z 18011KT 23/13 A3006 RMK A01 T02250126  RH  053%=      5-min Rain = 0
KAM3 030626Z 17011KT 23/13 A3006 RMK A01 T02250127  RH  054%=      5-min Rain = 0
KAM3 030627Z 17011KT 23/13 A3006 RMK A01 T02250127  RH  054%=      5-min Rain = 0
KAM3 030628Z 17011KT 22/13 A3006 RMK A01 T02240127  RH  054%=      5-min Rain = 0
KAM3 030629Z 17012KT 22/13 A3006 RMK A01 T02240127  RH  054%=      5-min Rain = 0
KAM3 030630Z 17011KT 22/13 A3006 RMK A01 T02240128  RH  055%=      5-min Rain = 0
KAM3 030631Z 17011KT 22/13 A3006 RMK A01 T02230128  RH  055%=      5-min Rain = 0
KAM3 030632Z 17011KT 22/13 A3006 RMK A01 T02220128  RH  055%=      5-min Rain = 0
KAM3 030633Z 17010KT 22/13 A3006 RMK A01 T02210128  RH  055%=      5-min Rain = 0
KAM3 030634Z 17010KT 22/13 A3006 RMK A01 T02210129  RH  056%=      5-min Rain = 0
KAM3 030635Z 17010KT 22/13 A3006 RMK A01 T02200129  RH  056%=      5-min Rain = 0
KAM3 030636Z 17011KT 22/13 A3006 RMK A01 T02200129  RH  056%=      5-min Rain = 0
KAM3 030637Z 17010KT 22/13 A3006 RMK A01 T02200129  RH  056%=      5-min Rain = 0
KAM3 030638Z 17010KT 22/13 A3006 RMK A01 T02200129  RH  056%=      5-min Rain = 0
KAM3 030639Z 17010KT 22/13 A3006 RMK A01 T02190129  RH  057%=      5-min Rain = 0
KAM3 030640Z 17011KT 22/13 A3006 RMK A01 T02190130  RH  057%=      5-min Rain = 0
KAM3 030641Z 17011KT 22/13 A3006 RMK A01 T02190130  RH  057%=      5-min Rain = 0
KAM3 030642Z 17010KT 22/13 A3006 RMK A01 T02190130  RH  057%=      5-min Rain = 0
KAM3 030643Z 17010KT 22/13 A3006 RMK A01 T02190130  RH  057%=      5-min Rain = 0
KAM3 030644Z 17010KT 22/13 A3006 RMK A01 T02190130  RH  057%=      5-min Rain = 0
KAM3 030645Z 17010KT 22/13 A3006 RMK A01 T02180130  RH  057%=      5-min Rain = 0
KAM3 030646Z 17010KT 22/13 A3005 RMK A01 T02170130  RH  057%=      5-min Rain = 0
KAM3 030647Z 17009KT 22/13 A3005 RMK A01 T02170130  RH  058%=      5-min Rain = 0
KAM3 030648Z 16010KT 22/13 A3005 RMK A01 T02170130  RH  058%=      5-min Rain = 0
KAM3 030649Z 17009KT 22/13 A3005 RMK A01 T02170130  RH  058%=      5-min Rain = 0
KAM3 030650Z 17009KT 22/13 A3005 RMK A01 T02160130  RH  058%=      5-min Rain = 0
KAM3 030651Z 17009KT 22/13 A3005 RMK A01 T02160130  RH  058%=      5-min Rain = 0
KAM3 030652Z 16009KT 22/13 A3005 RMK A01 T02150130  RH  058%=      5-min Rain = 0
KAM3 030653Z 16008KT 22/13 A3005 RMK A01 T02150130  RH  059%=      5-min Rain = 0
KAM3 030654Z 16009KT 21/13 A3005 RMK A01 T02140130  RH  059%=      5-min Rain = 0
KAM3 030655Z 16008KT 21/13 A3005 RMK A01 T02140130  RH  059%=      5-min Rain = 0
KAM3 030656Z 16009KT 21/13 A3005 RMK A01 T02120130  RH  059%=      5-min Rain = 0
KAM3 030657Z 16008KT 21/13 A3005 RMK A01 T02120130  RH  060%=      5-min Rain = 0
KAM3 030658Z 16009KT 21/13 A3005 RMK A01 T02110130  RH  060%=      5-min Rain = 0
KAM3 030659Z 16009KT 21/13 A3005 RMK A01 T02100130  RH  060%=      5-min Rain = 0
KAM3 030700Z 16009KT 21/13 A3005 RMK A01 T02100130  RH  060%=      5-min Rain = 0
KAM3 030701Z 16009KT 21/13 A3005 RMK A01 T02100131  RH  061%=      5-min Rain = 0
KAM3 030702Z 16009KT 21/13 A3005 RMK A01 T02100131  RH  061%=      5-min Rain = 0
KAM3 030703Z 16009KT 21/13 A3005 RMK A01 T02100131  RH  061%=      5-min Rain = 0
KAM3 030704Z 17009KT 21/13 A3005 RMK A01 T02100131  RH  061%=      5-min Rain = 0
KAM3 030705Z 16009KT 21/13 A3005 RMK A01 T02100131  RH  061%=      5-min Rain = 0
KAM3 030706Z 17009KT 21/13 A3005 RMK A01 T02100132  RH  061%=      5-min Rain = 0
KAM3 030707Z 16009KT 21/13 A3005 RMK A01 T02100132  RH  061%=      5-min Rain = 0
KAM3 030708Z 17009KT 21/13 A3005 RMK A01 T02100132  RH  061%=      5-min Rain = 0
KAM3 030709Z 16009KT 21/13 A3005 RMK A01 T02100132  RH  061%=      5-min Rain = 0
KAM3 030710Z 17009KT 21/13 A3005 RMK A01 T02100132  RH  061%=      5-min Rain = 0
KAM3 030711Z 17009KT 21/13 A3005 RMK A01 T02100132  RH  061%=      5-min Rain = 0
KAM3 030712Z 16009KT 21/13 A3005 RMK A01 T02100132  RH  061%=      5-min Rain = 0
KAM3 030713Z 16009KT 21/13 A3005 RMK A01 T02090132  RH  061%=      5-min Rain = 0
KAM3 030714Z 17009KT 21/13 A3005 RMK A01 T02090132  RH  061%=      5-min Rain = 0
KAM3 030715Z 17009KT 21/13 A3005 RMK A01 T02090132  RH  061%=      5-min Rain = 0
KAM3 030716Z 17009KT 21/13 A3005 RMK A01 T02080132  RH  062%=      5-min Rain = 0
KAM3 030717Z 17009KT 21/13 A3005 RMK A01 T02080132  RH  062%=      5-min Rain = 0
KAM3 030718Z 17009KT 21/13 A3005 RMK A01 T02080132  RH  062%=      5-min Rain = 0
KAM3 030719Z 17009KT 21/13 A3005 RMK A01 T02080132  RH  062%=      5-min Rain = 0
KAM3 030720Z 17008KT 21/13 A3005 RMK A01 T02080133  RH  062%=      5-min Rain = 0
KAM3 030721Z 17008KT 21/13 A3005 RMK A01 T02080133  RH  062%=      5-min Rain = 0
KAM3 030722Z 17008KT 21/13 A3005 RMK A01 T02080133  RH  062%=      5-min Rain = 0
KAM3 030723Z 18007KT 21/13 A3005 RMK A01 T02090133  RH  062%=      5-min Rain = 0
KAM3 030724Z 18008KT 21/13 A3005 RMK A01 T02090134  RH  062%=      5-min Rain = 0
KAM3 030725Z 18008KT 21/13 A3005 RMK A01 T02110134  RH  061%=      5-min Rain = 0
KAM3 030726Z 18007KT 21/13 A3005 RMK A01 T02110134  RH  061%=      5-min Rain = 0
KAM3 030727Z 18006KT 21/13 A3005 RMK A01 T02110134  RH  061%=      5-min Rain = 0
KAM3 030728Z 18006KT 21/13 A3005 RMK A01 T02110134  RH  061%=      5-min Rain = 0
KAM3 030729Z 19005KT 21/13 A3005 RMK A01 T02110134  RH  061%=      5-min Rain = 0
KAM3 030730Z 18005KT 21/13 A3005 RMK A01 T02110134  RH  061%=      5-min Rain = 0
KAM3 030731Z 20005KT 21/13 A3005 RMK A01 T02120134  RH  061%=      5-min Rain = 0
KAM3 030732Z 21004KT 21/13 A3005 RMK A01 T02120134  RH  061%=      5-min Rain = 0
KAM3 030733Z 24002KT 21/13 A3005 RMK A01 T02120134  RH  061%=      5-min Rain = 0
KAM3 030734Z 27002KT 21/13 A3005 RMK A01 T02110133  RH  061%=      5-min Rain = 0
KAM3 030735Z 32002KT 21/13 A3005 RMK A01 T02080132  RH  062%=      5-min Rain = 0
KAM3 030736Z 33003KT 21/13 A3005 RMK A01 T02060131  RH  062%=      5-min Rain = 0
KAM3 030737Z 34003KT 20/13 A3005 RMK A01 T02040130  RH  063%=      5-min Rain = 0
KAM3 030738Z 32003KT 20/13 A3005 RMK A01 T02020130  RH  063%=      5-min Rain = 0
KAM3 030739Z 30002KT 20/13 A3005 RMK A01 T02000130  RH  064%=      5-min Rain = 0
KAM3 030740Z 29003KT 20/13 A3005 RMK A01 T01990130  RH  064%=      5-min Rain = 0
KAM3 030741Z 26002KT 20/13 A3005 RMK A01 T01980130  RH  065%=      5-min Rain = 0
KAM3 030742Z 27002KT 20/13 A3005 RMK A01 T01980131  RH  065%=      5-min Rain = 0
KAM3 030743Z 28001KT 20/13 A3005 RMK A01 T01980131  RH  065%=      5-min Rain = 0
KAM3 030744Z 28002KT 20/13 A3005 RMK A01 T01990131  RH  065%=      5-min Rain = 0
KAM3 030745Z 26001KT 20/13 A3005 RMK A01 T01990131  RH  065%=      5-min Rain = 0
KAM3 030746Z 26003KT 20/13 A3005 RMK A01 T01980132  RH  066%=      5-min Rain = 0
KAM3 030747Z 24003KT 20/13 A3005 RMK A01 T02000134  RH  066%=      5-min Rain = 0
KAM3 030748Z 23004KT 20/13 A3005 RMK A01 T02030134  RH  064%=      5-min Rain = 0
KAM3 030749Z 21003KT 21/14 A3005 RMK A01 T02060136  RH  064%=      5-min Rain = 0
KAM3 030750Z 20002KT 21/13 A3005 RMK A01 T02080134  RH  063%=      5-min Rain = 0
KAM3 030751Z 21004KT 21/13 A3005 RMK A01 T02080134  RH  062%=      5-min Rain = 0
KAM3 030752Z 21005KT 21/13 A3005 RMK A01 T02080134  RH  063%=      5-min Rain = 0
KAM3 030753Z 20005KT 21/14 A3005 RMK A01 T02090135  RH  063%=      5-min Rain = 0
KAM3 030754Z 19005KT 21/14 A3005 RMK A01 T02100135  RH  062%=      5-min Rain = 0
KAM3 030755Z 20006KT 21/14 A3005 RMK A01 T02100135  RH  062%=      5-min Rain = 0
KAM3 030756Z 20009KT 21/14 A3005 RMK A01 T02110137  RH  063%=      5-min Rain = 0
KAM3 030757Z 20008KT 21/14 A3005 RMK A01 T02130138  RH  062%=      5-min Rain = 0
KAM3 030758Z 20009KT 22/14 A3005 RMK A01 T02150139  RH  062%=      5-min Rain = 0
KAM3 030759Z 20009KT 22/14 A3005 RMK A01 T02170139  RH  061%=      5-min Rain = 0
KAM3 030800Z 20009KT 22/14 A3005 RMK A01 T02190140  RH  061%=      5-min Rain = 0
KAM3 030801Z 21011KT 22/14 A3005 RMK A01 T02200140  RH  060%=      5-min Rain = 0
KAM3 030802Z 20011KT 22/14 A3005 RMK A01 T02220140  RH  060%=      5-min Rain = 0
KAM3 030803Z 20012KT 22/14 A3005 RMK A01 T02240140  RH  059%=      5-min Rain = 0
KAM3 030804Z 20012KT 23/14 A3005 RMK A01 T02260140  RH  059%=      5-min Rain = 0
KAM3 030805Z 20011KT 23/14 A3005 RMK A01 T02270140  RH  058%=      5-min Rain = 0
KAM3 030806Z 20010KT 23/14 A3005 RMK A01 T02280140  RH  058%=      5-min Rain = 0
KAM3 030807Z 20010KT 23/14 A3005 RMK A01 T02270140  RH  058%=      5-min Rain = 0
KAM3 030808Z 20010KT 23/14 A3005 RMK A01 T02270140  RH  058%=      5-min Rain = 0
KAM3 030809Z 19010KT 23/14 A3005 RMK A01 T02260140  RH  058%=      5-min Rain = 0
KAM3 030810Z 19010KT 23/14 A3005 RMK A01 T02260140  RH  058%=      5-min Rain = 0
KAM3 030811Z 19009KT 23/14 A3004 RMK A01 T02250140  RH  058%=      5-min Rain = 0
KAM3 030812Z 19010KT 23/14 A3004 RMK A01 T02250139  RH  058%=      5-min Rain = 0
KAM3 030813Z 19009KT 23/14 A3004 RMK A01 T02250139  RH  058%=      5-min Rain = 0
KAM3 030814Z 19010KT 23/14 A3004 RMK A01 T02250139  RH  058%=      5-min Rain = 0
KAM3 030815Z 19009KT 23/14 A3004 RMK A01 T02250139  RH  058%=      5-min Rain = 0
KAM3 030816Z 19009KT 23/14 A3004 RMK A01 T02250139  RH  058%=      5-min Rain = 0
KAM3 030817Z 19010KT 23/14 A3004 RMK A01 T02250140  RH  058%=      5-min Rain = 0
KAM3 030818Z 19010KT 23/14 A3004 RMK A01 T02250139  RH  058%=      5-min Rain = 0
KAM3 030819Z 19009KT 23/14 A3004 RMK A01 T02250139  RH  058%=      5-min Rain = 0
KAM3 030820Z 19009KT 23/14 A3004 RMK A01 T02250139  RH  058%=      5-min Rain = 0
KAM3 030821Z 19009KT 22/14 A3004 RMK A01 T02240139  RH  059%=      5-min Rain = 0
KAM3 030822Z 19010KT 22/14 A3004 RMK A01 T02240139  RH  059%=      5-min Rain = 0
KAM3 030823Z 19010KT 22/14 A3004 RMK A01 T02240139  RH  059%=      5-min Rain = 0
KAM3 030824Z 19010KT 22/14 A3004 RMK A01 T02240139  RH  059%=      5-min Rain = 0
KAM3 030825Z 20009KT 22/14 A3004 RMK A01 T02240139  RH  058%=      5-min Rain = 0
KAM3 030826Z 19010KT 22/14 A3004 RMK A01 T02240139  RH  058%=      5-min Rain = 0
KAM3 030827Z 19010KT 22/14 A3004 RMK A01 T02240139  RH  059%=      5-min Rain = 0
KAM3 030828Z 20010KT 22/14 A3004 RMK A01 T02230139  RH  059%=      5-min Rain = 0
KAM3 030829Z 20010KT 22/14 A3004 RMK A01 T02230139  RH  059%=      5-min Rain = 0
KAM3 030830Z 19010KT 22/14 A3004 RMK A01 T02230139  RH  059%=      5-min Rain = 0
KAM3 030831Z 20010KT 22/14 A3004 RMK A01 T02230139  RH  059%=      5-min Rain = 0
KAM3 030832Z 19010KT 22/14 A3004 RMK A01 T02220139  RH  059%=      5-min Rain = 0
KAM3 030833Z 19010KT 22/14 A3004 RMK A01 T02220139  RH  059%=      5-min Rain = 0
KAM3 030834Z 19010KT 22/14 A3004 RMK A01 T02230139  RH  059%=      5-min Rain = 0
KAM3 030835Z 19011KT 22/14 A3003 RMK A01 T02230139  RH  059%=      5-min Rain = 0
KAM3 030836Z 19010KT 22/14 A3003 RMK A01 T02230139  RH  059%=      5-min Rain = 0
KAM3 030837Z 19011KT 22/14 A3003 RMK A01 T02220138  RH  059%=      5-min Rain = 0
KAM3 030838Z 19011KT 22/14 A3003 RMK A01 T02230139  RH  059%=      5-min Rain = 0
KAM3 030839Z 19011KT 22/14 A3003 RMK A01 T02230138  RH  059%=      5-min Rain = 0
KAM3 030840Z 20013KT 22/14 A3003 RMK A01 T02240139  RH  059%=      5-min Rain = 0
KAM3 030841Z 19013KT 23/14 A3003 RMK A01 T02250139  RH  058%=      5-min Rain = 0
KAM3 030842Z 19012KT 23/14 A3003 RMK A01 T02260139  RH  058%=      5-min Rain = 0
KAM3 030843Z 19011KT 23/14 A3003 RMK A01 T02260139  RH  058%=      5-min Rain = 0
KAM3 030844Z 19011KT 23/14 A3003 RMK A01 T02260139  RH  058%=      5-min Rain = 0
KAM3 030845Z 19012KT 23/14 A3003 RMK A01 T02260139  RH  058%=      5-min Rain = 0
KAM3 030846Z 19013KT 23/14 A3003 RMK A01 T02260139  RH  058%=      5-min Rain = 0
KAM3 030847Z 19012KT 23/14 A3003 RMK A01 T02260139  RH  058%=      5-min Rain = 0
KAM3 030848Z 19013KT 23/14 A3003 RMK A01 T02260139  RH  058%=      5-min Rain = 0
KAM3 030849Z 19012KT 23/14 A3003 RMK A01 T02260139  RH  058%=      5-min Rain = 0
KAM3 030850Z 19011KT 23/14 A3003 RMK A01 T02270139  RH  058%=      5-min Rain = 0
KAM3 030851Z 19012KT 23/14 A3003 RMK A01 T02270139  RH  058%=      5-min Rain = 0
KAM3 030852Z 20014KT 23/14 A3003 RMK A01 T02270139  RH  057%=      5-min Rain = 0
KAM3 030853Z 19013KT 23/14 A3003 RMK A01 T02270139  RH  057%=      5-min Rain = 0
KAM3 030854Z 19012KT 23/14 A3003 RMK A01 T02280139  RH  057%=      5-min Rain = 0
KAM3 030855Z 19012KT 23/14 A3003 RMK A01 T02280139  RH  057%=      5-min Rain = 0
KAM3 030856Z 19015KT 23/14 A3003 RMK A01 T02270139  RH  057%=      5-min Rain = 0
KAM3 030857Z 19014KT 23/14 A3003 RMK A01 T02270139  RH  057%=      5-min Rain = 0
KAM3 030858Z 20013KT 23/14 A3003 RMK A01 T02270139  RH  057%=      5-min Rain = 0
KAM3 030859Z 20012KT 23/14 A3003 RMK A01 T02270139  RH  057%=      5-min Rain = 0
KAM3 030900Z 20012KT 23/14 A3003 RMK A01 T02270139  RH  057%=      5-min Rain = 0
KAM3 030901Z 20014KT 23/14 A3003 RMK A01 T02260139  RH  058%=      5-min Rain = 0
KAM3 030902Z 19013KT 23/14 A3003 RMK A01 T02260139  RH  058%=      5-min Rain = 0
KAM3 030903Z 20011KT 23/14 A3003 RMK A01 T02260138  RH  058%=      5-min Rain = 0
KAM3 030904Z 20010KT 23/14 A3003 RMK A01 T02260139  RH  058%=      5-min Rain = 0
KAM3 030905Z 20013KT 23/14 A3003 RMK A01 T02250139  RH  058%=      5-min Rain = 0
KAM3 030906Z 19013G18KT 23/14 A3003 RMK A01 T02250139  RH  058%=      5-min Rain = 0
KAM3 030907Z 20012KT 23/14 A3003 RMK A01 T02260139  RH  058%=      5-min Rain = 0
KAM3 030908Z 19012KT 23/14 A3003 RMK A01 T02260139  RH  058%=      5-min Rain = 0
KAM3 030909Z 20014KT 23/14 A3003 RMK A01 T02260139  RH  058%=      5-min Rain = 0
KAM3 030910Z 20012KT 23/14 A3003 RMK A01 T02260139  RH  058%=      5-min Rain = 0
KAM3 030911Z 20010KT 23/14 A3003 RMK A01 T02250139  RH  058%=      5-min Rain = 0
KAM3 030912Z 20011KT 22/14 A3003 RMK A01 T02240138  RH  058%=      5-min Rain = 0
KAM3 030913Z 20011KT 22/14 A3003 RMK A01 T02240138  RH  058%=      5-min Rain = 0
KAM3 030914Z 20009KT 22/14 A3003 RMK A01 T02230139  RH  059%=      5-min Rain = 0
KAM3 030915Z 20008KT 22/14 A3003 RMK A01 T02230138  RH  059%=      5-min Rain = 0
KAM3 030916Z 20010KT 22/14 A3003 RMK A01 T02220138  RH  059%=      5-min Rain = 0
KAM3 030917Z 20009KT 22/14 A3003 RMK A01 T02220138  RH  059%=      5-min Rain = 0
KAM3 030918Z 20009KT 22/14 A3003 RMK A01 T02220138  RH  059%=      5-min Rain = 0
KAM3 030919Z 21008KT 22/14 A3003 RMK A01 T02210138  RH  059%=      5-min Rain = 0
KAM3 030920Z 20007KT 22/14 A3003 RMK A01 T02210138  RH  059%=      5-min Rain = 0
KAM3 030921Z 20008KT 22/14 A3003 RMK A01 T02200138  RH  060%=      5-min Rain = 0
KAM3 030922Z 20008KT 22/14 A3003 RMK A01 T02200138  RH  060%=      5-min Rain = 0
KAM3 030923Z 20007KT 22/14 A3003 RMK A01 T02190138  RH  060%=      5-min Rain = 0
KAM3 030924Z 21007KT 22/14 A3003 RMK A01 T02190138  RH  060%=      5-min Rain = 0
KAM3 030925Z 21006KT 22/14 A3003 RMK A01 T02180138  RH  060%=      5-min Rain = 0
KAM3 030926Z 21006KT 22/14 A3003 RMK A01 T02170138  RH  061%=      5-min Rain = 0
KAM3 030927Z 22006KT 22/14 A3003 RMK A01 T02170138  RH  061%=      5-min Rain = 0
KAM3 030928Z 22005KT 22/14 A3003 RMK A01 T02170138  RH  061%=      5-min Rain = 0
KAM3 030929Z 23005KT 22/14 A3003 RMK A01 T02150137  RH  061%=      5-min Rain = 0
KAM3 030930Z 24005KT 22/14 A3003 RMK A01 T02150138  RH  061%=      5-min Rain = 0
KAM3 030931Z 25005KT 21/14 A3003 RMK A01 T02140138  RH  062%=      5-min Rain = 0
KAM3 030932Z 28004KT 21/14 A3003 RMK A01 T02130138  RH  062%=      5-min Rain = 0
KAM3 030933Z 30004KT 21/14 A3003 RMK A01 T02120137  RH  062%=      5-min Rain = 0
KAM3 030934Z 31003KT 21/14 A3003 RMK A01 T02110137  RH  063%=      5-min Rain = 0
KAM3 030935Z 31003KT 21/14 A3003 RMK A01 T02100137  RH  063%=      5-min Rain = 0
KAM3 030936Z 31003KT 21/14 A3003 RMK A01 T02090137  RH  063%=      5-min Rain = 0
KAM3 030937Z 31003KT 21/14 A3003 RMK A01 T02090137  RH  063%=      5-min Rain = 0
KAM3 030938Z 30002KT 21/14 A3003 RMK A01 T02090137  RH  063%=      5-min Rain = 0
KAM3 030939Z 30002KT 21/14 A3003 RMK A01 T02090137  RH  064%=      5-min Rain = 0
KAM3 030940Z 28002KT 21/14 A3003 RMK A01 T02080137  RH  064%=      5-min Rain = 0
KAM3 030941Z 27001KT 21/14 A3003 RMK A01 T02080137  RH  064%=      5-min Rain = 0
KAM3 030942Z 24003KT 21/14 A3003 RMK A01 T02080137  RH  064%=      5-min Rain = 0
KAM3 030943Z 24004KT 21/14 A3003 RMK A01 T02090137  RH  064%=      5-min Rain = 0
KAM3 030944Z 23004KT 21/14 A3003 RMK A01 T02090137  RH  063%=      5-min Rain = 0
KAM3 030945Z 23004KT 21/14 A3003 RMK A01 T02090137  RH  063%=      5-min Rain = 0
KAM3 030946Z 23005KT 21/14 A3003 RMK A01 T02080136  RH  063%=      5-min Rain = 0
KAM3 030947Z 22005KT 21/14 A3003 RMK A01 T02070136  RH  064%=      5-min Rain = 0
KAM3 030948Z 23005KT 21/14 A3003 RMK A01 T02070136  RH  064%=      5-min Rain = 0
KAM3 030949Z 23006KT 21/14 A3003 RMK A01 T02050135  RH  064%=      5-min Rain = 0
KAM3 030950Z 23006KT 20/14 A3003 RMK A01 T02040135  RH  065%=      5-min Rain = 0
KAM3 030951Z 23006KT 20/14 A3003 RMK A01 T02030136  RH  065%=      5-min Rain = 0
KAM3 030952Z 24005KT 20/14 A3003 RMK A01 T02020135  RH  066%=      5-min Rain = 0
KAM3 030953Z 25006KT 20/14 A3003 RMK A01 T02010136  RH  066%=      5-min Rain = 0
KAM3 030954Z 26005KT 20/14 A3003 RMK A01 T02010135  RH  066%=      5-min Rain = 0
KAM3 030955Z 27004KT 20/14 A3003 RMK A01 T02000135  RH  066%=      5-min Rain = 0
KAM3 030956Z 27005KT 20/14 A3003 RMK A01 T01990135  RH  067%=      5-min Rain = 0
KAM3 030957Z 26005KT 20/14 A3003 RMK A01 T01970135  RH  067%=      5-min Rain = 0
KAM3 030958Z 26006KT 20/14 A3003 RMK A01 T01970135  RH  067%=      5-min Rain = 0
KAM3 030959Z 25006KT 20/14 A3003 RMK A01 T01960135  RH  068%=      5-min Rain = 0
KAM3 031000Z 24005KT 20/14 A3003 RMK A01 T01960135  RH  068%=      5-min Rain = 0
KAM3 031001Z 24005KT 20/14 A3003 RMK A01 T01950135  RH  068%=      5-min Rain = 0
KAM3 031002Z 23003KT 20/13 A3003 RMK A01 T01950134  RH  068%=      5-min Rain = 0
KAM3 031003Z 24003KT 19/14 A3003 RMK A01 T01940135  RH  068%=      5-min Rain = 0
KAM3 031004Z 24004KT 19/13 A3003 RMK A01 T01930134  RH  069%=      5-min Rain = 0
KAM3 031005Z 24004KT 19/13 A3003 RMK A01 T01930134  RH  069%=      5-min Rain = 0
KAM3 031006Z 23004KT 19/13 A3003 RMK A01 T01920134  RH  069%=      5-min Rain = 0
KAM3 031007Z 23005KT 19/13 A3003 RMK A01 T01910134  RH  069%=      5-min Rain = 0
KAM3 031008Z 22004KT 19/13 A3003 RMK A01 T01910134  RH  069%=      5-min Rain = 0
KAM3 031009Z 21004KT 19/13 A3003 RMK A01 T01910134  RH  070%=      5-min Rain = 0
KAM3 031010Z 21004KT 19/13 A3003 RMK A01 T01910134  RH  070%=      5-min Rain = 0
KAM3 031011Z 21005KT 19/13 A3003 RMK A01 T01910134  RH  070%=      5-min Rain = 0
KAM3 031012Z 22005KT 19/13 A3003 RMK A01 T01900134  RH  070%=      5-min Rain = 0
KAM3 031013Z 22005KT 19/13 A3003 RMK A01 T01890133  RH  070%=      5-min Rain = 0
KAM3 031014Z 22005KT 19/13 A3003 RMK A01 T01880133  RH  070%=      5-min Rain = 0
KAM3 031015Z 22005KT 19/13 A3003 RMK A01 T01870133  RH  071%=      5-min Rain = 0
KAM3 031016Z 22006KT 19/13 A3003 RMK A01 T01870133  RH  071%=      5-min Rain = 0
KAM3 031017Z 22006KT 19/13 A3003 RMK A01 T01860133  RH  071%=      5-min Rain = 0
KAM3 031018Z 21007KT 19/13 A3003 RMK A01 T01860134  RH  071%=      5-min Rain = 0
KAM3 031019Z 22007KT 19/13 A3003 RMK A01 T01860134  RH  071%=      5-min Rain = 0
KAM3 031020Z 22008KT 19/13 A3003 RMK A01 T01860134  RH  071%=      5-min Rain = 0
KAM3 031021Z 22008KT 19/13 A3003 RMK A01 T01870134  RH  071%=      5-min Rain = 0
KAM3 031022Z 22007KT 19/13 A3003 RMK A01 T01870134  RH  071%=      5-min Rain = 0
KAM3 031023Z 22008KT 19/13 A3003 RMK A01 T01870134  RH  071%=      5-min Rain = 0
KAM3 031024Z 22007KT 19/13 A3003 RMK A01 T01860134  RH  072%=      5-min Rain = 0
KAM3 031025Z 21006KT 19/13 A3003 RMK A01 T01860134  RH  072%=      5-min Rain = 0
KAM3 031026Z 21006KT 19/13 A3003 RMK A01 T01860134  RH  072%=      5-min Rain = 0
KAM3 031027Z 22005KT 19/13 A3003 RMK A01 T01860134  RH  072%=      5-min Rain = 0
KAM3 031028Z 21005KT 19/13 A3003 RMK A01 T01850134  RH  072%=      5-min Rain = 0
KAM3 031029Z 21005KT 19/13 A3003 RMK A01 T01850134  RH  072%=      5-min Rain = 0
KAM3 031030Z 21005KT 19/13 A3003 RMK A01 T01850134  RH  072%=      5-min Rain = 0
KAM3 031031Z 21006KT 19/13 A3003 RMK A01 T01850134  RH  072%=      5-min Rain = 0
KAM3 031032Z 21005KT 19/13 A3003 RMK A01 T01850134  RH  072%=      5-min Rain = 0
KAM3 031033Z 21005KT 19/13 A3003 RMK A01 T01850134  RH  072%=      5-min Rain = 0
KAM3 031034Z 21005KT 19/13 A3003 RMK A01 T01850134  RH  072%=      5-min Rain = 0
KAM3 031035Z 21005KT 19/13 A3003 RMK A01 T01850134  RH  072%=      5-min Rain = 0
KAM3 031036Z 21004KT 19/13 A3003 RMK A01 T01850134  RH  072%=      5-min Rain = 0
KAM3 031037Z 22004KT 19/13 A3003 RMK A01 T01850134  RH  072%=      5-min Rain = 0
KAM3 031038Z 24004KT 19/13 A3003 RMK A01 T01850134  RH  072%=      5-min Rain = 0
KAM3 031039Z 24004KT 18/13 A3003 RMK A01 T01840134  RH  072%=      5-min Rain = 0
KAM3 031040Z 25004KT 18/13 A3003 RMK A01 T01830134  RH  073%=      5-min Rain = 0
KAM3 031041Z 25004KT 18/13 A3003 RMK A01 T01840134  RH  073%=      5-min Rain = 0
KAM3 031042Z 25005KT 18/13 A3003 RMK A01 T01840134  RH  073%=      5-min Rain = 0
KAM3 031043Z 25005KT 18/13 A3003 RMK A01 T01840134  RH  072%=      5-min Rain = 0
KAM3 031044Z 25004KT 18/13 A3003 RMK A01 T01840133  RH  072%=      5-min Rain = 0
KAM3 031045Z 26004KT 18/13 A3003 RMK A01 T01840133  RH  072%=      5-min Rain = 0
KAM3 031046Z 27004KT 18/13 A3003 RMK A01 T01830133  RH  073%=      5-min Rain = 0
KAM3 031047Z 27004KT 18/13 A3003 RMK A01 T01820133  RH  073%=      5-min Rain = 0
KAM3 031048Z 27004KT 18/13 A3003 RMK A01 T01820134  RH  073%=      5-min Rain = 0
KAM3 031049Z 27004KT 18/13 A3003 RMK A01 T01820134  RH  073%=      5-min Rain = 0
KAM3 031050Z 27004KT 18/13 A3003 RMK A01 T01820134  RH  073%=      5-min Rain = 0
KAM3 031051Z 27004KT 18/13 A3004 RMK A01 T01830134  RH  073%=      5-min Rain = 0
KAM3 031052Z 27004KT 18/13 A3004 RMK A01 T01840134  RH  072%=      5-min Rain = 0
KAM3 031053Z 27004KT 18/13 A3004 RMK A01 T01840133  RH  072%=      5-min Rain = 0
KAM3 031054Z 27003KT 18/13 A3004 RMK A01 T01840133  RH  072%=      5-min Rain = 0
KAM3 031055Z 27003KT 19/13 A3004 RMK A01 T01850134  RH  072%=      5-min Rain = 0
KAM3 031056Z 26004KT 19/13 A3004 RMK A01 T01850134  RH  072%=      5-min Rain = 0
KAM3 031057Z 25004KT 19/13 A3004 RMK A01 T01860134  RH  072%=      5-min Rain = 0
KAM3 031058Z 24004KT 19/13 A3004 RMK A01 T01880134  RH  071%=      5-min Rain = 0
KAM3 031059Z 24004KT 19/13 A3004 RMK A01 T01890134  RH  071%=      5-min Rain = 0
KAM3 031100Z 24004KT 19/13 A3004 RMK A01 T01900134  RH  070%=      5-min Rain = 0
KAM3 031101Z 23004KT 19/13 A3004 RMK A01 T01900134  RH  070%=      5-min Rain = 0
KAM3 031102Z 22004KT 19/13 A3004 RMK A01 T01900134  RH  070%=      5-min Rain = 0
KAM3 031103Z 21004KT 19/13 A3004 RMK A01 T01900134  RH  070%=      5-min Rain = 0
KAM3 031104Z 21003KT 19/13 A3004 RMK A01 T01900134  RH  070%=      5-min Rain = 0
KAM3 031105Z 21003KT 19/13 A3004 RMK A01 T01890133  RH  070%=      5-min Rain = 0
KAM3 031106Z 20003KT 19/13 A3004 RMK A01 T01870133  RH  071%=      5-min Rain = 0
KAM3 031107Z 19002KT 19/13 A3004 RMK A01 T01860133  RH  071%=      5-min Rain = 0
KAM3 031108Z 19002KT 19/13 A3004 RMK A01 T01860134  RH  071%=      5-min Rain = 0
KAM3 031109Z 19002KT 19/13 A3004 RMK A01 T01850134  RH  072%=      5-min Rain = 0
KAM3 031110Z 20002KT 19/13 A3004 RMK A01 T01850134  RH  072%=      5-min Rain = 0
KAM3 031111Z 20002KT 19/13 A3004 RMK A01 T01850134  RH  072%=      5-min Rain = 0
KAM3 031112Z 21002KT 19/13 A3004 RMK A01 T01850134  RH  072%=      5-min Rain = 0
KAM3 031113Z 20003KT 19/13 A3004 RMK A01 T01860134  RH  072%=      5-min Rain = 0
KAM3 031114Z 20003KT 19/13 A3004 RMK A01 T01870134  RH  071%=      5-min Rain = 0
KAM3 031115Z 20003KT 19/13 A3004 RMK A01 T01870134  RH  071%=      5-min Rain = 0
KAM3 031116Z 20003KT 19/13 A3004 RMK A01 T01870134  RH  071%=      5-min Rain = 0
KAM3 031117Z 20004KT 19/13 A3004 RMK A01 T01870134  RH  071%=      5-min Rain = 0
KAM3 031118Z 20004KT 19/13 A3004 RMK A01 T01860133  RH  072%=      5-min Rain = 0
KAM3 031119Z 21004KT 19/13 A3004 RMK A01 T01850133  RH  072%=      5-min Rain = 0
KAM3 031120Z 21004KT 18/13 A3004 RMK A01 T01840133  RH  072%=      5-min Rain = 0
KAM3 031121Z 21004KT 18/13 A3004 RMK A01 T01830132  RH  072%=      5-min Rain = 0
KAM3 031122Z 21004KT 18/13 A3004 RMK A01 T01820132  RH  073%=      5-min Rain = 0
KAM3 031123Z 21005KT 18/13 A3004 RMK A01 T01800132  RH  073%=      5-min Rain = 0
KAM3 031124Z 20005KT 18/13 A3004 RMK A01 T01800132  RH  074%=      5-min Rain = 0
KAM3 031125Z 20005KT 18/13 A3004 RMK A01 T01790132  RH  074%=      5-min Rain = 0
KAM3 031126Z 20005KT 18/13 A3004 RMK A01 T01780132  RH  074%=      5-min Rain = 0
KAM3 031127Z 20006KT 18/13 A3004 RMK A01 T01780132  RH  074%=      5-min Rain = 0
KAM3 031128Z 20006KT 18/13 A3004 RMK A01 T01780132  RH  074%=      5-min Rain = 0
KAM3 031129Z 20006KT 18/13 A3004 RMK A01 T01780132  RH  074%=      5-min Rain = 0
KAM3 031130Z 20006KT 18/13 A3004 RMK A01 T01780132  RH  074%=      5-min Rain = 0
KAM3 031131Z 20006KT 18/13 A3004 RMK A01 T01790132  RH  074%=      5-min Rain = 0
KAM3 031132Z 20006KT 18/13 A3004 RMK A01 T01800133  RH  074%=      5-min Rain = 0
KAM3 031133Z 20006KT 18/13 A3004 RMK A01 T01800133  RH  074%=      5-min Rain = 0
KAM3 031134Z 20005KT 18/13 A3004 RMK A01 T01810133  RH  073%=      5-min Rain = 0
KAM3 031135Z 20005KT 18/13 A3004 RMK A01 T01820133  RH  073%=      5-min Rain = 0
KAM3 031136Z 20005KT 18/13 A3004 RMK A01 T01820133  RH  073%=      5-min Rain = 0
KAM3 031137Z 19005KT 18/13 A3004 RMK A01 T01820133  RH  073%=      5-min Rain = 0
KAM3 031138Z 20005KT 18/13 A3004 RMK A01 T01820133  RH  073%=      5-min Rain = 0
KAM3 031139Z 20005KT 18/13 A3004 RMK A01 T01820133  RH  073%=      5-min Rain = 0
KAM3 031140Z 20005KT 18/13 A3004 RMK A01 T01820133  RH  073%=      5-min Rain = 0
KAM3 031141Z 20005KT 18/13 A3004 RMK A01 T01820133  RH  073%=      5-min Rain = 0
KAM3 031142Z 20005KT 18/13 A3004 RMK A01 T01820133  RH  073%=      5-min Rain = 0
KAM3 031143Z 20005KT 18/13 A3004 RMK A01 T01820133  RH  073%=      5-min Rain = 0
KAM3 031144Z 20005KT 18/13 A3004 RMK A01 T01830133  RH  073%=      5-min Rain = 0
KAM3 031145Z 20005KT 18/13 A3004 RMK A01 T01830133  RH  073%=      5-min Rain = 0
KAM3 031146Z 20005KT 18/13 A3004 RMK A01 T01830133  RH  073%=      5-min Rain = 0
KAM3 031147Z 20005KT 18/13 A3004 RMK A01 T01830133  RH  073%=      5-min Rain = 0
KAM3 031148Z 20005KT 18/13 A3005 RMK A01 T01830133  RH  073%=      5-min Rain = 0
KAM3 031149Z 20005KT 18/13 A3005 RMK A01 T01830133  RH  073%=      5-min Rain = 0
KAM3 031150Z 21005KT 18/13 A3005 RMK A01 T01840133  RH  073%=      5-min Rain = 0
KAM3 031151Z 21005KT 18/13 A3005 RMK A01 T01840134  RH  072%=      5-min Rain = 0
KAM3 031152Z 21004KT 18/13 A3005 RMK A01 T01840134  RH  072%=      5-min Rain = 0
KAM3 031153Z 21004KT 19/13 A3005 RMK A01 T01850134  RH  072%=      5-min Rain = 0
KAM3 031154Z 21004KT 19/13 A3005 RMK A01 T01860134  RH  072%=      5-min Rain = 0
KAM3 031155Z 21004KT 19/13 A3005 RMK A01 T01860134  RH  071%=      5-min Rain = 0
KAM3 031156Z 21004KT 19/13 A3005 RMK A01 T01860134  RH  071%=      5-min Rain = 0
KAM3 031157Z 21004KT 19/13 A3005 RMK A01 T01870134  RH  071%=      5-min Rain = 0
KAM3 031158Z 22004KT 19/13 A3005 RMK A01 T01870134  RH  071%=      5-min Rain = 0
KAM3 031159Z 22004KT 19/13 A3005 RMK A01 T01870134  RH  071%=      5-min Rain = 0
KAM3 031200Z 22004KT 19/13 A3005 RMK A01 T01860134  RH  071%=      5-min Rain = 0
KAM3 031201Z 23004KT 19/13 A3005 RMK A01 T01870134  RH  071%=      5-min Rain = 0
KAM3 031202Z 23004KT 19/13 A3005 RMK A01 T01870134  RH  071%=      5-min Rain = 0
KAM3 031203Z 23004KT 19/13 A3005 RMK A01 T01880134  RH  071%=      5-min Rain = 0
KAM3 031204Z 23004KT 19/13 A3005 RMK A01 T01890134  RH  070%=      5-min Rain = 0
KAM3 031205Z 23004KT 19/13 A3005 RMK A01 T01890134  RH  070%=      5-min Rain = 0
KAM3 031206Z 23005KT 19/13 A3005 RMK A01 T01890134  RH  070%=      5-min Rain = 0
KAM3 031207Z 22005KT 19/13 A3005 RMK A01 T01900134  RH  070%=      5-min Rain = 0
KAM3 031208Z 22004KT 19/13 A3005 RMK A01 T01900134  RH  070%=      5-min Rain = 0
KAM3 031209Z 23004KT 19/14 A3005 RMK A01 T01900135  RH  070%=      5-min Rain = 0
KAM3 031210Z 23004KT 19/13 A3005 RMK A01 T01900134  RH  070%=      5-min Rain = 0
KAM3 031211Z 23004KT 19/13 A3005 RMK A01 T01910134  RH  070%=      5-min Rain = 0
KAM3 031212Z 24004KT 19/13 A3005 RMK A01 T01910134  RH  070%=      5-min Rain = 0
KAM3 031213Z 24004KT 19/13 A3005 RMK A01 T01920134  RH  069%=      5-min Rain = 0
KAM3 031214Z 23004KT 19/13 A3005 RMK A01 T01920134  RH  069%=      5-min Rain = 0
KAM3 031215Z 23004KT 19/13 A3005 RMK A01 T01930134  RH  069%=      5-min Rain = 0
KAM3 031216Z 24004KT 19/13 A3005 RMK A01 T01930134  RH  069%=      5-min Rain = 0
KAM3 031217Z 24004KT 19/14 A3005 RMK A01 T01930135  RH  069%=      5-min Rain = 0
KAM3 031218Z 24004KT 19/13 A3005 RMK A01 T01940134  RH  068%=      5-min Rain = 0
KAM3 031219Z 24004KT 19/14 A3005 RMK A01 T01940135  RH  068%=      5-min Rain = 0
KAM3 031220Z 25004KT 19/14 A3005 RMK A01 T01940135  RH  068%=      5-min Rain = 0
KAM3 031221Z 25004KT 19/14 A3005 RMK A01 T01940135  RH  069%=      5-min Rain = 0
KAM3 031222Z 24004KT 19/14 A3005 RMK A01 T01940135  RH  069%=      5-min Rain = 0
KAM3 031223Z 25004KT 19/14 A3005 RMK A01 T01940135  RH  069%=      5-min Rain = 0
KAM3 031224Z 25004KT 19/14 A3005 RMK A01 T01940136  RH  069%=      5-min Rain = 0
KAM3 031225Z 25004KT 19/14 A3005 RMK A01 T01940135  RH  069%=      5-min Rain = 0
KAM3 031226Z 25004KT 19/14 A3005 RMK A01 T01940136  RH  069%=      5-min Rain = 0
KAM3 031227Z 26004KT 20/14 A3005 RMK A01 T01950136  RH  069%=      5-min Rain = 0
KAM3 031228Z 25003KT 20/14 A3005 RMK A01 T01960136  RH  069%=      5-min Rain = 0
KAM3 031229Z 26003KT 20/14 A3005 RMK A01 T01960136  RH  068%=      5-min Rain = 0
KAM3 031230Z 25003KT 20/14 A3005 RMK A01 T01970137  RH  068%=      5-min Rain = 0
KAM3 031231Z 25003KT 20/14 A3005 RMK A01 T01970137  RH  068%=      5-min Rain = 0
KAM3 031232Z 25003KT 20/14 A3005 RMK A01 T01980137  RH  068%=      5-min Rain = 0
KAM3 031233Z 24003KT 20/14 A3005 RMK A01 T01990137  RH  068%=      5-min Rain = 0
KAM3 031234Z 24002KT 20/14 A3005 RMK A01 T01990137  RH  067%=      5-min Rain = 0
KAM3 031235Z 25002KT 20/14 A3005 RMK A01 T02000137  RH  067%=      5-min Rain = 0
KAM3 031236Z 24002KT 20/14 A3005 RMK A01 T02010137  RH  067%=      5-min Rain = 0
KAM3 031237Z 24002KT 20/14 A3005 RMK A01 T02020138  RH  066%=      5-min Rain = 0
KAM3 031238Z 24001KT 20/14 A3005 RMK A01 T02030138  RH  066%=      5-min Rain = 0
KAM3 031239Z 25001KT 20/14 A3005 RMK A01 T02040138  RH  066%=      5-min Rain = 0
KAM3 031240Z 24001KT 21/14 A3005 RMK A01 T02050139  RH  066%=      5-min Rain = 0
KAM3 031241Z 24001KT 21/14 A3005 RMK A01 T02060138  RH  065%=      5-min Rain = 0
KAM3 031242Z 24001KT 21/14 A3005 RMK A01 T02070137  RH  064%=      5-min Rain = 0
KAM3 031243Z 24001KT 21/14 A3005 RMK A01 T02080139  RH  064%=      5-min Rain = 0
KAM3 031244Z 24001KT 21/14 A3005 RMK A01 T02090139  RH  064%=      5-min Rain = 0
KAM3 031245Z 23001KT 21/14 A3005 RMK A01 T02100136  RH  062%=      5-min Rain = 0
KAM3 031246Z 22001KT 21/13 A3005 RMK A01 T02110134  RH  062%=      5-min Rain = 0
KAM3 031247Z 20001KT 21/14 A3005 RMK A01 T02110135  RH  062%=      5-min Rain = 0
KAM3 031248Z 21001KT 21/14 A3005 RMK A01 T02120135  RH  061%=      5-min Rain = 0
KAM3 031249Z 21001KT 21/14 A3006 RMK A01 T02130136  RH  061%=      5-min Rain = 0
KAM3 031250Z 22001KT 21/14 A3006 RMK A01 T02130137  RH  062%=      5-min Rain = 0
KAM3 031251Z 23001KT 21/14 A3006 RMK A01 T02140140  RH  063%=      5-min Rain = 0
KAM3 031252Z 23001KT 22/14 A3006 RMK A01 T02150142  RH  063%=      5-min Rain = 0
KAM3 031253Z 24001KT 22/14 A3006 RMK A01 T02150141  RH  063%=      5-min Rain = 0
KAM3 031254Z 28001KT 22/14 A3006 RMK A01 T02160140  RH  062%=      5-min Rain = 0
KAM3 031255Z 29000KT 22/14 A3006 RMK A01 T02170137  RH  061%=      5-min Rain = 0
KAM3 031256Z 29000KT 22/14 A3006 RMK A01 T02170136  RH  060%=      5-min Rain = 0
KAM3 031257Z 29001KT 22/13 A3006 RMK A01 T02190133  RH  058%=      5-min Rain = 0
KAM3 031258Z 29001KT 22/13 A3006 RMK A01 T02190132  RH  058%=      5-min Rain = 0
KAM3 031259Z 28001KT 22/13 A3006 RMK A01 T02200133  RH  058%=      5-min Rain = 0
KAM3 031300Z 27001KT 22/14 A3006 RMK A01 T02210135  RH  058%=      5-min Rain = 0
KAM3 031301Z 29001KT 22/14 A3006 RMK A01 T02210135  RH  058%=      5-min Rain = 0
KAM3 031302Z 26002KT 22/13 A3006 RMK A01 T02210134  RH  058%=      5-min Rain = 0
KAM3 031303Z 26002KT 22/14 A3006 RMK A01 T02210135  RH  058%=      5-min Rain = 0
KAM3 031304Z 25001KT 22/14 A3006 RMK A01 T02210135  RH  058%=      5-min Rain = 0
KAM3 031305Z 24001KT 22/14 A3006 RMK A01 T02220138  RH  059%=      5-min Rain = 0
KAM3 031306Z 26001KT 22/14 A3006 RMK A01 T02230138  RH  059%=      5-min Rain = 0
KAM3 031307Z 26001KT 22/14 A3006 RMK A01 T02240138  RH  058%=      5-min Rain = 0
KAM3 031308Z 24001KT 23/14 A3006 RMK A01 T02250138  RH  058%=      5-min Rain = 0
KAM3 031309Z 22001KT 23/14 A3006 RMK A01 T02250137  RH  058%=      5-min Rain = 0
KAM3 031310Z 21002KT 23/14 A3006 RMK A01 T02270140  RH  058%=      5-min Rain = 0
KAM3 031311Z 22003KT 23/14 A3006 RMK A01 T02280136  RH  056%=      5-min Rain = 0
KAM3 031312Z 22004KT 23/14 A3006 RMK A01 T02280136  RH  056%=      5-min Rain = 0
KAM3 031313Z 23003KT 23/14 A3006 RMK A01 T02280136  RH  056%=      5-min Rain = 0
KAM3 031314Z 24002KT 23/14 A3006 RMK A01 T02280135  RH  056%=      5-min Rain = 0
KAM3 031315Z 23002KT 23/14 A3006 RMK A01 T02280137  RH  056%=      5-min Rain = 0
KAM3 031316Z 22002KT 23/14 A3006 RMK A01 T02290136  RH  056%=      5-min Rain = 0
KAM3 031317Z 23003KT 23/14 A3005 RMK A01 T02300138  RH  056%=      5-min Rain = 0
KAM3 031318Z 23003KT 23/14 A3005 RMK A01 T02300137  RH  056%=      5-min Rain = 0
KAM3 031319Z 23002KT 23/14 A3005 RMK A01 T02300138  RH  056%=      5-min Rain = 0
KAM3 031320Z 25003KT 23/14 A3005 RMK A01 T02320141  RH  056%=      5-min Rain = 0
KAM3 031321Z 23005KT 23/14 A3005 RMK A01 T02330139  RH  055%=      5-min Rain = 0
KAM3 031322Z 23006KT 23/14 A3005 RMK A01 T02330138  RH  055%=      5-min Rain = 0
KAM3 031323Z 23005KT 23/14 A3006 RMK A01 T02340139  RH  055%=      5-min Rain = 0
KAM3 031324Z 23005KT 23/14 A3006 RMK A01 T02340139  RH  055%=      5-min Rain = 0
KAM3 031325Z 23005KT 24/14 A3006 RMK A01 T02350138  RH  055%=      5-min Rain = 0
KAM3 031326Z 24005KT 24/14 A3006 RMK A01 T02350138  RH  054%=      5-min Rain = 0
KAM3 031327Z 24005KT 24/14 A3006 RMK A01 T02350138  RH  054%=      5-min Rain = 0
KAM3 031328Z 24006KT 24/14 A3006 RMK A01 T02350138  RH  055%=      5-min Rain = 0
KAM3 031329Z 24005KT 24/14 A3006 RMK A01 T02350138  RH  054%=      5-min Rain = 0
KAM3 031330Z 25005KT 24/14 A3006 RMK A01 T02350138  RH  054%=      5-min Rain = 0
KAM3 031331Z 25005KT 24/14 A3006 RMK A01 T02350138  RH  054%=      5-min Rain = 0
KAM3 031332Z 25005KT 24/14 A3006 RMK A01 T02350138  RH  054%=      5-min Rain = 0
KAM3 031333Z 25003KT 24/14 A3006 RMK A01 T02350139  RH  055%=      5-min Rain = 0
KAM3 031334Z 24003KT 24/14 A3006 RMK A01 T02360141  RH  055%=      5-min Rain = 0
KAM3 031335Z 24005KT 24/14 A3006 RMK A01 T02380141  RH  054%=      5-min Rain = 0
KAM3 031336Z 23004KT 24/14 A3005 RMK A01 T02390140  RH  054%=      5-min Rain = 0
KAM3 031337Z 22005KT 24/14 A3005 RMK A01 T02390141  RH  054%=      5-min Rain = 0
KAM3 031338Z 22005KT 24/14 A3005 RMK A01 T02400141  RH  054%=      5-min Rain = 0
KAM3 031339Z 23004KT 24/14 A3005 RMK A01 T02400142  RH  054%=      5-min Rain = 0
KAM3 031340Z 24005KT 24/14 A3005 RMK A01 T02410140  RH  053%=      5-min Rain = 0
KAM3 031341Z 23006KT 24/14 A3005 RMK A01 T02410141  RH  054%=      5-min Rain = 0
KAM3 031342Z 23007KT 24/14 A3005 RMK A01 T02410141  RH  054%=      5-min Rain = 0
KAM3 031343Z 24006KT 24/14 A3005 RMK A01 T02420142  RH  054%=      5-min Rain = 0
KAM3 031344Z 23006KT 24/14 A3005 RMK A01 T02430141  RH  053%=      5-min Rain = 0
KAM3 031345Z 23006KT 24/14 A3005 RMK A01 T02430140  RH  053%=      5-min Rain = 0
KAM3 031346Z 23005KT 24/14 A3005 RMK A01 T02430142  RH  053%=      5-min Rain = 0
KAM3 031347Z 24006KT 25/14 A3005 RMK A01 T02450143  RH  053%=      5-min Rain = 0
KAM3 031348Z 24005KT 25/14 A3005 RMK A01 T02470143  RH  052%=      5-min Rain = 0
KAM3 031349Z 23006KT 25/14 A3005 RMK A01 T02470142  RH  052%=      5-min Rain = 0
KAM3 031350Z 24006KT 25/14 A3005 RMK A01 T02470141  RH  052%=      5-min Rain = 0
KAM3 031351Z 24004KT 25/14 A3005 RMK A01 T02470142  RH  052%=      5-min Rain = 0
KAM3 031352Z 22006KT 25/14 A3005 RMK A01 T02490142  RH  052%=      5-min Rain = 0
KAM3 031353Z 23005KT 25/14 A3005 RMK A01 T02500143  RH  051%=      5-min Rain = 0
KAM3 031354Z 24006KT 25/14 A3005 RMK A01 T02510141  RH  051%=      5-min Rain = 0
KAM3 031355Z 24006KT 25/14 A3005 RMK A01 T02510142  RH  051%=      5-min Rain = 0
KAM3 031356Z 21007KT 25/14 A3005 RMK A01 T02510141  RH  050%=      5-min Rain = 0
KAM3 031357Z 22006KT 25/14 A3005 RMK A01 T02510142  RH  051%=      5-min Rain = 0
KAM3 031358Z 23005KT 25/14 A3006 RMK A01 T02510141  RH  050%=      5-min Rain = 0
KAM3 031359Z 22005KT 25/14 A3006 RMK A01 T02500140  RH  050%=      5-min Rain = 0
KAM3 031400Z 22005KT 25/14 A3006 RMK A01 T02500141  RH  051%=      5-min Rain = 0
KAM3 031401Z 23006KT 25/14 A3006 RMK A01 T02500141  RH  051%=      5-min Rain = 0
KAM3 031402Z 22006KT 25/14 A3006 RMK A01 T02510142  RH  051%=      5-min Rain = 0
KAM3 031403Z 21006KT 25/14 A3006 RMK A01 T02520141  RH  050%=      5-min Rain = 0
KAM3 031404Z 22007KT 25/14 A3006 RMK A01 T02530142  RH  050%=      5-min Rain = 0
KAM3 031405Z 23008KT 25/14 A3005 RMK A01 T02530140  RH  050%=      5-min Rain = 0
KAM3 031406Z 24007KT 25/14 A3005 RMK A01 T02530140  RH  050%=      5-min Rain = 0
KAM3 031407Z 23008KT 25/14 A3005 RMK A01 T02530141  RH  050%=      5-min Rain = 0
KAM3 031408Z 22008KT 25/14 A3006 RMK A01 T02530141  RH  050%=      5-min Rain = 0
KAM3 031409Z 22007KT 26/14 A3006 RMK A01 T02550141  RH  049%=      5-min Rain = 0
KAM3 031410Z 22006KT 26/14 A3006 RMK A01 T02560140  RH  049%=      5-min Rain = 0
KAM3 031411Z 24008KT 26/14 A3006 RMK A01 T02570141  RH  049%=      5-min Rain = 0
KAM3 031412Z 22006KT 26/14 A3006 RMK A01 T02570140  RH  048%=      5-min Rain = 0
KAM3 031413Z 23007KT 26/14 A3006 RMK A01 T02570142  RH  049%=      5-min Rain = 0
KAM3 031414Z 22006KT 26/14 A3006 RMK A01 T02590142  RH  048%=      5-min Rain = 0
KAM3 031415Z 24005KT 26/14 A3006 RMK A01 T02610143  RH  048%=      5-min Rain = 0
KAM3 031416Z 23007KT 26/14 A3006 RMK A01 T02630144  RH  048%=      5-min Rain = 0
KAM3 031417Z 22007KT 26/14 A3006 RMK A01 T02630142  RH  047%=      5-min Rain = 0
KAM3 031418Z 23008KT 26/14 A3006 RMK A01 T02640141  RH  047%=      5-min Rain = 0
KAM3 031419Z 24007KT 26/14 A3006 RMK A01 T02640141  RH  047%=      5-min Rain = 0
KAM3 031420Z 24007KT 26/14 A3006 RMK A01 T02640140  RH  047%=      5-min Rain = 0
KAM3 031421Z 23006KT 26/14 A3006 RMK A01 T02640141  RH  047%=      5-min Rain = 0
KAM3 031422Z 22007KT 27/14 A3006 RMK A01 T02670143  RH  047%=      5-min Rain = 0
KAM3 031423Z 23009KT 27/14 A3006 RMK A01 T02690141  RH  045%=      5-min Rain = 0
KAM3 031424Z 24007KT 27/14 A3006 RMK A01 T02680140  RH  045%=      5-min Rain = 0
KAM3 031425Z 24008KT 27/14 A3006 RMK A01 T02660139  RH  045%=      5-min Rain = 0
KAM3 031426Z 24007KT 27/14 A3006 RMK A01 T02660139  RH  046%=      5-min Rain = 0
KAM3 031427Z 24004KT 27/14 A3006 RMK A01 T02660140  RH  046%=      5-min Rain = 0
KAM3 031428Z 21007KT 27/14 A3006 RMK A01 T02680140  RH  045%=      5-min Rain = 0
KAM3 031429Z 24009KT 27/14 A3006 RMK A01 T02680139  RH  045%=      5-min Rain = 0
KAM3 031430Z 23007KT 27/14 A3006 RMK A01 T02690139  RH  045%=      5-min Rain = 0
KAM3 031431Z 22008KT 27/14 A3006 RMK A01 T02690138  RH  044%=      5-min Rain = 0
KAM3 031432Z 24006KT 27/14 A3006 RMK A01 T02690139  RH  045%=      5-min Rain = 0
KAM3 031433Z 24006KT 27/14 A3006 RMK A01 T02710140  RH  045%=      5-min Rain = 0
KAM3 031434Z 24006KT 27/14 A3006 RMK A01 T02720138  RH  044%=      5-min Rain = 0
KAM3 031435Z 25005KT 27/14 A3006 RMK A01 T02720138  RH  044%=      5-min Rain = 0
KAM3 031436Z 25003KT 27/14 A3006 RMK A01 T02720142  RH  045%=      5-min Rain = 0
KAM3 031437Z 24007KT 27/14 A3006 RMK A01 T02740141  RH  044%=      5-min Rain = 0
KAM3 031438Z 25006KT 28/14 A3006 RMK A01 T02750139  RH  043%=      5-min Rain = 0
KAM3 031439Z 24005KT 28/14 A3006 RMK A01 T02760140  RH  043%=      5-min Rain = 0
KAM3 031440Z 25004KT 28/14 A3006 RMK A01 T02760138  RH  043%=      5-min Rain = 0
KAM3 031441Z 25009KT 28/14 A3006 RMK A01 T02760139  RH  043%=      5-min Rain = 0
KAM3 031442Z 26008KT 28/14 A3006 RMK A01 T02760137  RH  042%=      5-min Rain = 0
KAM3 031443Z 24006KT 27/14 A3006 RMK A01 T02740137  RH  043%=      5-min Rain = 0
KAM3 031444Z 24004KT 27/14 A3006 RMK A01 T02740138  RH  043%=      5-min Rain = 0
KAM3 031445Z 25005KT 27/14 A3006 RMK A01 T02740136  RH  043%=      5-min Rain = 0
KAM3 031446Z 24008KT 28/14 A3006 RMK A01 T02750138  RH  043%=      5-min Rain = 0
KAM3 031447Z 25007KT 28/14 A3006 RMK A01 T02770139  RH  043%=      5-min Rain = 0
KAM3 031448Z 25008KT 28/14 A3006 RMK A01 T02780138  RH  042%=      5-min Rain = 0
KAM3 031449Z 24005KT 28/14 A3006 RMK A01 T02780139  RH  042%=      5-min Rain = 0
KAM3 031450Z 24004KT 28/14 A3006 RMK A01 T02780139  RH  042%=      5-min Rain = 0
KAM3 031451Z 22004KT 28/14 A3005 RMK A01 T02800138  RH  042%=      5-min Rain = 0
KAM3 031452Z 25004KT 28/14 A3005 RMK A01 T02790139  RH  042%=      5-min Rain = 0
KAM3 031453Z 23005KT 28/14 A3005 RMK A01 T02790138  RH  042%=      5-min Rain = 0
KAM3 031454Z 24004KT 28/14 A3005 RMK A01 T02800139  RH  042%=      5-min Rain = 0
KAM3 031455Z 25003KT 28/14 A3006 RMK A01 T02830141  RH  042%=      5-min Rain = 0
KAM3 031456Z 25004KT 29/14 A3005 RMK A01 T02860142  RH  041%=      5-min Rain = 0
KAM3 031457Z 25005KT 29/14 A3005 RMK A01 T02880139  RH  040%=      5-min Rain = 0
KAM3 031458Z 24007KT 29/14 A3005 RMK A01 T02870139  RH  040%=      5-min Rain = 0
KAM3 031459Z 25006KT 29/14 A3005 RMK A01 T02870139  RH  040%=      5-min Rain = 0
KAM3 031500Z 23005KT 29/14 A3006 RMK A01 T02880137  RH  040%=      5-min Rain = 0
KAM3 031501Z 24005KT 29/14 A3005 RMK A01 T02870138  RH  040%=      5-min Rain = 0
KAM3 031502Z 23005KT 29/14 A3005 RMK A01 T02870136  RH  040%=      5-min Rain = 0
KAM3 031503Z 22005KT 29/14 A3005 RMK A01 T02860135  RH  040%=      5-min Rain = 0
KAM3 031504Z 24003KT 28/14 A3005 RMK A01 T02840135  RH  040%=      5-min Rain = 0
KAM3 031505Z 27004KT 28/14 A3005 RMK A01 T02840136  RH  040%=      5-min Rain = 0
KAM3 031506Z 29004KT 29/14 A3005 RMK A01 T02850136  RH  040%=      5-min Rain = 0
KAM3 031507Z 28007KT 29/14 A3005 RMK A01 T02870135  RH  039%=      5-min Rain = 0
KAM3 031508Z 29005KT 29/13 A3005 RMK A01 T02880133  RH  038%=      5-min Rain = 0
KAM3 031509Z 28005KT 29/13 A3005 RMK A01 T02870132  RH  038%=      5-min Rain = 0
KAM3 031510Z 27005KT 29/14 A3005 RMK A01 T02870135  RH  039%=      5-min Rain = 0
KAM3 031511Z 29006KT 29/13 A3005 RMK A01 T02870131  RH  038%=      5-min Rain = 0
KAM3 031512Z 29006KT 29/13 A3005 RMK A01 T02870132  RH  038%=      5-min Rain = 0
KAM3 031513Z 29005KT 29/13 A3005 RMK A01 T02870129  RH  038%=      5-min Rain = 0
KAM3 031514Z 26005KT 29/13 A3005 RMK A01 T02860131  RH  039%=      5-min Rain = 0
KAM3 031515Z 27003KT 29/13 A3005 RMK A01 T02860131  RH  038%=      5-min Rain = 0
KAM3 031516Z 28002KT 29/13 A3005 RMK A01 T02860126  RH  037%=      5-min Rain = 0
KAM3 031517Z 29000KT 29/13 A3005 RMK A01 T02860128  RH  038%=      5-min Rain = 0
KAM3 031518Z 26007KT 29/13 A3005 RMK A01 T02870133  RH  039%=      5-min Rain = 0
KAM3 031519Z 26006KT 29/13 A3005 RMK A01 T02900134  RH  038%=      5-min Rain = 0
KAM3 031520Z 26004KT 29/13 A3005 RMK A01 T02900132  RH  038%=      5-min Rain = 0
KAM3 031521Z 26004KT 29/13 A3005 RMK A01 T02890133  RH  038%=      5-min Rain = 0
KAM3 031522Z 27005KT 29/13 A3005 RMK A01 T02890134  RH  038%=      5-min Rain = 0
KAM3 031523Z 27002KT 29/13 A3005 RMK A01 T02890130  RH  038%=      5-min Rain = 0
KAM3 031524Z 23001KT 29/13 A3005 RMK A01 T02880130  RH  038%=      5-min Rain = 0
KAM3 031525Z 23001KT 29/13 A3005 RMK A01 T02890130  RH  038%=      5-min Rain = 0
KAM3 031526Z 32004KT 29/13 A3005 RMK A01 T02910132  RH  038%=      5-min Rain = 0
KAM3 031527Z 31005KT 29/13 A3005 RMK A01 T02920132  RH  037%=      5-min Rain = 0
KAM3 031528Z 31005KT 29/13 A3005 RMK A01 T02920130  RH  037%=      5-min Rain = 0
KAM3 031529Z 32006KT 29/13 A3005 RMK A01 T02920129  RH  037%=      5-min Rain = 0
KAM3 031530Z 32005KT 29/13 A3005 RMK A01 T02910129  RH  037%=      5-min Rain = 0
KAM3 031531Z 34004KT 29/13 A3005 RMK A01 T02910128  RH  037%=      5-min Rain = 0
KAM3 031532Z 33003KT 29/13 A3005 RMK A01 T02910129  RH  037%=      5-min Rain = 0
KAM3 031533Z 31003KT 29/13 A3005 RMK A01 T02920130  RH  037%=      5-min Rain = 0
KAM3 031534Z 32003KT 29/13 A3005 RMK A01 T02930131  RH  037%=      5-min Rain = 0
KAM3 031535Z 30004KT 29/14 A3005 RMK A01 T02940136  RH  038%=      5-min Rain = 0
KAM3 031536Z 32005KT 30/13 A3005 RMK A01 T02990132  RH  036%=      5-min Rain = 0
KAM3 031537Z 29003KT 30/13 A3005 RMK A01 T02990131  RH  036%=      5-min Rain = 0
KAM3 031538Z 27002KT 30/13 A3005 RMK A01 T02980128  RH  035%=      5-min Rain = 0
KAM3 031539Z 29002KT 30/13 A3005 RMK A01 T02970129  RH  036%=      5-min Rain = 0
KAM3 031540Z 29003KT 30/13 A3005 RMK A01 T02960130  RH  036%=      5-min Rain = 0
KAM3 031541Z 28005KT 30/13 A3005 RMK A01 T02950133  RH  037%=      5-min Rain = 0
KAM3 031542Z 27004KT 30/13 A3005 RMK A01 T02950131  RH  037%=      5-min Rain = 0
KAM3 031543Z 26004KT 30/13 A3005 RMK A01 T02950131  RH  037%=      5-min Rain = 0
KAM3 031544Z 27004KT 29/13 A3005 RMK A01 T02940132  RH  037%=      5-min Rain = 0
KAM3 031545Z 28006KT 30/13 A3005 RMK A01 T02960129  RH  036%=      5-min Rain = 0
KAM3 031546Z 29007KT 30/13 A3005 RMK A01 T02970129  RH  036%=      5-min Rain = 0
KAM3 031547Z 27004KT 30/13 A3005 RMK A01 T02980133  RH  036%=      5-min Rain = 0
KAM3 031548Z 29006KT 30/13 A3005 RMK A01 T03010129  RH  035%=      5-min Rain = 0
KAM3 031549Z 30008KT 30/13 A3005 RMK A01 T03010127  RH  034%=      5-min Rain = 0
KAM3 031550Z 30007KT 30/13 A3005 RMK A01 T02990126  RH  034%=      5-min Rain = 0
KAM3 031551Z 32007KT 30/13 A3005 RMK A01 T02970127  RH  035%=      5-min Rain = 0
KAM3 031552Z 31007KT 30/13 A3005 RMK A01 T02980125  RH  035%=      5-min Rain = 0
KAM3 031553Z 31006KT 30/13 A3005 RMK A01 T02980125  RH  034%=      5-min Rain = 0
KAM3 031554Z 31005KT 30/12 A3005 RMK A01 T02970124  RH  034%=      5-min Rain = 0
KAM3 031555Z 32004KT 30/13 A3005 RMK A01 T02970125  RH  035%=      5-min Rain = 0
KAM3 031556Z 30005KT 30/13 A3005 RMK A01 T02990126  RH  035%=      5-min Rain = 0
KAM3 031557Z 30004KT 30/13 A3005 RMK A01 T03000125  RH  034%=      5-min Rain = 0
KAM3 031558Z 29004KT 30/13 A3005 RMK A01 T02990125  RH  034%=      5-min Rain = 0
KAM3 031559Z 28004KT 30/12 A3005 RMK A01 T02980124  RH  034%=      5-min Rain = 0
KAM3 031600Z 28007KT 30/12 A3005 RMK A01 T02970124  RH  034%=      5-min Rain = 0
KAM3 031601Z 28008KT 30/12 A3005 RMK A01 T02980122  RH  034%=      5-min Rain = 0
KAM3 031602Z 29006KT 30/12 A3005 RMK A01 T03010121  RH  033%=      5-min Rain = 0
KAM3 031603Z 29004KT 30/12 A3005 RMK A01 T03020122  RH  033%=      5-min Rain = 0
KAM3 031604Z 31002KT 30/12 A3005 RMK A01 T03030123  RH  033%=      5-min Rain = 0
KAM3 031605Z 35003KT 30/12 A3005 RMK A01 T03040122  RH  033%=      5-min Rain = 0
KAM3 031606Z 33003KT 30/12 A3005 RMK A01 T03030123  RH  033%=      5-min Rain = 0
KAM3 031607Z 32005KT 30/13 A3004 RMK A01 T03020125  RH  034%=      5-min Rain = 0
KAM3 031608Z 32005KT 30/13 A3004 RMK A01 T03010128  RH  035%=      5-min Rain = 0
KAM3 031609Z 29005KT 30/13 A3004 RMK A01 T03020126  RH  034%=      5-min Rain = 0
KAM3 031610Z 29004KT 30/13 A3004 RMK A01 T03030125  RH  034%=      5-min Rain = 0
KAM3 031611Z 24005KT 31/12 A3004 RMK A01 T03050124  RH  033%=      5-min Rain = 0
KAM3 031612Z 24005KT 31/12 A3004 RMK A01 T03050120  RH  032%=      5-min Rain = 0
KAM3 031613Z 25004KT 30/13 A3004 RMK A01 T03040125  RH  033%=      5-min Rain = 0
KAM3 031614Z 26004KT 31/13 A3004 RMK A01 T03070126  RH  033%=      5-min Rain = 0
KAM3 031615Z 31005KT 31/13 A3004 RMK A01 T03090127  RH  033%=      5-min Rain = 0
KAM3 031616Z 31006KT 31/13 A3004 RMK A01 T03090127  RH  033%=      5-min Rain = 0
KAM3 031617Z 29007KT 31/13 A3004 RMK A01 T03080126  RH  033%=      5-min Rain = 0
KAM3 031618Z 33003KT 31/13 A3004 RMK A01 T03070125  RH  033%=      5-min Rain = 0
KAM3 031619Z 27003KT 31/13 A3004 RMK A01 T03060128  RH  034%=      5-min Rain = 0
KAM3 031620Z 28007KT 31/13 A3004 RMK A01 T03080128  RH  033%=      5-min Rain = 0
KAM3 031621Z 26008KT 31/13 A3004 RMK A01 T03100126  RH  032%=      5-min Rain = 0
KAM3 031622Z 25006KT 31/12 A3004 RMK A01 T03090123  RH  032%=      5-min Rain = 0
KAM3 031623Z 26003KT 31/12 A3004 RMK A01 T03070122  RH  032%=      5-min Rain = 0
KAM3 031624Z 31006KT 31/12 A3004 RMK A01 T03060124  RH  033%=      5-min Rain = 0
KAM3 031625Z 32007KT 31/12 A3004 RMK A01 T03080123  RH  032%=      5-min Rain = 0
KAM3 031626Z 34008KT 31/12 A3004 RMK A01 T03080122  RH  032%=      5-min Rain = 0
KAM3 031627Z 33006KT 31/13 A3004 RMK A01 T03070125  RH  033%=      5-min Rain = 0
KAM3 031628Z 33005KT 31/12 A3004 RMK A01 T03090124  RH  032%=      5-min Rain = 0
KAM3 031629Z 29006KT 31/12 A3004 RMK A01 T03110124  RH  032%=      5-min Rain = 0
KAM3 031630Z 27002KT 31/12 A3004 RMK A01 T03110120  RH  031%=      5-min Rain = 0
KAM3 031631Z 25004KT 31/12 A3004 RMK A01 T03100121  RH  031%=      5-min Rain = 0
KAM3 031632Z 25005KT 31/12 A3004 RMK A01 T03100122  RH  032%=      5-min Rain = 0
KAM3 031633Z 26003KT 31/12 A3004 RMK A01 T03100122  RH  032%=      5-min Rain = 0
KAM3 031634Z 26004KT 31/12 A3004 RMK A01 T03110121  RH  031%=      5-min Rain = 0
KAM3 031635Z 24006KT 31/12 A3004 RMK A01 T03110119  RH  031%=      5-min Rain = 0
KAM3 031636Z 27004KT 31/12 A3004 RMK A01 T03100122  RH  032%=      5-min Rain = 0
KAM3 031637Z 30004KT 31/12 A3004 RMK A01 T03130123  RH  031%=      5-min Rain = 0
KAM3 031638Z 28006KT 31/12 A3004 RMK A01 T03140118  RH  030%=      5-min Rain = 0
KAM3 031639Z 27003KT 31/11 A3004 RMK A01 T03110113  RH  030%=      5-min Rain = 0
KAM3 031640Z 26001KT 31/12 A3004 RMK A01 T03080117  RH  031%=      5-min Rain = 0
KAM3 031641Z 08000KT 31/12 A3004 RMK A01 T03100118  RH  031%=      5-min Rain = 0
KAM3 031642Z 10002KT 31/12 A3003 RMK A01 T03110118  RH  031%=      5-min Rain = 0
KAM3 031643Z 11002KT 31/12 A3003 RMK A01 T03140124  RH  031%=      5-min Rain = 0
KAM3 031644Z 32001KT 32/12 A3003 RMK A01 T03180124  RH  031%=      5-min Rain = 0
KAM3 031645Z 28002KT 32/12 A3003 RMK A01 T03200121  RH  030%=      5-min Rain = 0
KAM3 031646Z 32005KT 32/12 A3003 RMK A01 T03200119  RH  029%=      5-min Rain = 0
KAM3 031647Z 31005KT 32/12 A3003 RMK A01 T03200116  RH  029%=      5-min Rain = 0
KAM3 031648Z 29006KT 32/12 A3003 RMK A01 T03180119  RH  030%=      5-min Rain = 0
KAM3 031649Z 31005KT 32/12 A3003 RMK A01 T03190118  RH  029%=      5-min Rain = 0
KAM3 031650Z 31005KT 32/12 A3003 RMK A01 T03190118  RH  029%=      5-min Rain = 0
KAM3 031651Z 28005KT 32/12 A3003 RMK A01 T03200123  RH  030%=      5-min Rain = 0
KAM3 031652Z 24006KT 32/11 A3003 RMK A01 T03220112  RH  028%=      5-min Rain = 0
KAM3 031653Z 24006KT 32/11 A3003 RMK A01 T03190112  RH  028%=      5-min Rain = 0
KAM3 031654Z 24005KT 32/11 A3003 RMK A01 T03180112  RH  028%=      5-min Rain = 0
KAM3 031655Z 25008KT 32/11 A3003 RMK A01 T03180112  RH  028%=      5-min Rain = 0
KAM3 031656Z 25007KT 32/11 A3003 RMK A01 T03170113  RH  029%=      5-min Rain = 0
KAM3 031657Z 24004KT 32/11 A3003 RMK A01 T03160112  RH  029%=      5-min Rain = 0
KAM3 031658Z 26007KT 32/11 A3003 RMK A01 T03150112  RH  029%=      5-min Rain = 0
KAM3 031659Z 26006KT 32/11 A3003 RMK A01 T03150113  RH  029%=      5-min Rain = 0
KAM3 031700Z 25004KT 32/11 A3003 RMK A01 T03170108  RH  028%=      5-min Rain = 0
KAM3 031701Z 24001KT 32/11 A3003 RMK A01 T03160109  RH  028%=      5-min Rain = 0
KAM3 031702Z 27001KT 32/11 A3003 RMK A01 T03160110  RH  028%=      5-min Rain = 0
KAM3 031703Z 24004KT 32/11 A3003 RMK A01 T03180109  RH  028%=      5-min Rain = 0
KAM3 031704Z 22003KT 32/10 A3003 RMK A01 T03190103  RH  027%=      5-min Rain = 0
KAM3 031705Z 18002KT 32/11 A3003 RMK A01 T03170106  RH  027%=      5-min Rain = 0
KAM3 031706Z 24004KT 32/11 A3003 RMK A01 T03180109  RH  028%=      5-min Rain = 0
KAM3 031707Z 22003KT 32/11 A3003 RMK A01 T03200108  RH  027%=      5-min Rain = 0
KAM3 031708Z 18002KT 32/11 A3003 RMK A01 T03180109  RH  028%=      5-min Rain = 0
KAM3 031709Z 16004KT 32/11 A3003 RMK A01 T03180110  RH  028%=      5-min Rain = 0
KAM3 031710Z 21004KT 32/11 A3003 RMK A01 T03210111  RH  028%=      5-min Rain = 0
KAM3 031711Z 20002KT 32/11 A3003 RMK A01 T03220109  RH  027%=      5-min Rain = 0
KAM3 031712Z 22004KT 32/11 A3003 RMK A01 T03230111  RH  027%=      5-min Rain = 0
KAM3 031713Z 22007KT 33/12 A3003 RMK A01 T03270115  RH  027%=      5-min Rain = 0
KAM3 031714Z 23006KT 33/11 A3003 RMK A01 T03280112  RH  027%=      5-min Rain = 0
KAM3 031715Z 23005KT 33/11 A3003 RMK A01 T03250109  RH  027%=      5-min Rain = 0
KAM3 031716Z 24004KT 32/11 A3003 RMK A01 T03220110  RH  027%=      5-min Rain = 0
KAM3 031717Z 18001KT 32/11 A3003 RMK A01 T03200106  RH  027%=      5-min Rain = 0
KAM3 031718Z 16003KT 32/11 A3003 RMK A01 T03200109  RH  027%=      5-min Rain = 0
KAM3 031719Z 01002KT 32/11 A3003 RMK A01 T03200110  RH  028%=      5-min Rain = 0
KAM3 031720Z 30003KT 32/11 A3003 RMK A01 T03210110  RH  027%=      5-min Rain = 0
KAM3 031721Z 31005KT 32/11 A3002 RMK A01 T03220113  RH  028%=      5-min Rain = 0
KAM3 031722Z 34004KT 32/11 A3002 RMK A01 T03220112  RH  028%=      5-min Rain = 0
KAM3 031723Z 33005KT 32/12 A3002 RMK A01 T03230117  RH  028%=      5-min Rain = 0
KAM3 031724Z 32005KT 33/12 A3002 RMK A01 T03260117  RH  028%=      5-min Rain = 0
KAM3 031725Z 34005KT 33/12 A3002 RMK A01 T03300119  RH  028%=      5-min Rain = 0
KAM3 031726Z 28002KT 33/11 A3002 RMK A01 T03320111  RH  026%=      5-min Rain = 0
KAM3 031727Z 31001KT 33/11 A3002 RMK A01 T03310112  RH  026%=      5-min Rain = 0
KAM3 031728Z 30006KT 33/11 A3002 RMK A01 T03310111  RH  026%=      5-min Rain = 0
KAM3 031729Z 30005KT 33/11 A3002 RMK A01 T03300110  RH  026%=      5-min Rain = 0
KAM3 031730Z 32004KT 33/11 A3002 RMK A01 T03290107  RH  026%=      5-min Rain = 0
KAM3 031731Z 32003KT 33/11 A3002 RMK A01 T03280109  RH  026%=      5-min Rain = 0
KAM3 031732Z 28003KT 33/11 A3002 RMK A01 T03280111  RH  027%=      5-min Rain = 0
KAM3 031733Z 25006KT 33/11 A3002 RMK A01 T03290109  RH  026%=      5-min Rain = 0
KAM3 031734Z 25007KT 33/11 A3002 RMK A01 T03300109  RH  026%=      5-min Rain = 0
KAM3 031735Z 25005KT 33/11 A3002 RMK A01 T03300107  RH  026%=      5-min Rain = 0
KAM3 031736Z 27005KT 33/11 A3002 RMK A01 T03300112  RH  026%=      5-min Rain = 0
KAM3 031737Z 26005KT 33/11 A3002 RMK A01 T03300113  RH  027%=      5-min Rain = 0
KAM3 031738Z 24008KT 33/11 A3002 RMK A01 T03320112  RH  026%=      5-min Rain = 0
KAM3 031739Z 25004KT 33/11 A3002 RMK A01 T03310107  RH  026%=      5-min Rain = 0
KAM3 031740Z 27003KT 33/11 A3002 RMK A01 T03280109  RH  026%=      5-min Rain = 0
KAM3 031741Z 20003KT 33/11 A3002 RMK A01 T03270109  RH  026%=      5-min Rain = 0
KAM3 031742Z 24004KT 33/11 A3002 RMK A01 T03270110  RH  027%=      5-min Rain = 0
KAM3 031743Z 27003KT 33/11 A3002 RMK A01 T03270110  RH  026%=      5-min Rain = 0
KAM3 031744Z 32001KT 33/11 A3002 RMK A01 T03270110  RH  026%=      5-min Rain = 0
KAM3 031745Z 04002KT 33/11 A3002 RMK A01 T03290112  RH  027%=      5-min Rain = 0
KAM3 031746Z 08000KT 33/11 A3002 RMK A01 T03300110  RH  026%=      5-min Rain = 0
KAM3 031747Z 03000KT 33/11 A3002 RMK A01 T03300107  RH  026%=      5-min Rain = 0
KAM3 031748Z 23001KT 33/11 A3002 RMK A01 T03290108  RH  026%=      5-min Rain = 0
KAM3 031749Z 23001KT 33/11 A3002 RMK A01 T03290111  RH  026%=      5-min Rain = 0
KAM3 031750Z 26001KT 33/11 A3002 RMK A01 T03320112  RH  026%=      5-min Rain = 0
KAM3 031751Z 22004KT 33/11 A3002 RMK A01 T03340111  RH  026%=      5-min Rain = 0
KAM3 031752Z 23005KT 34/11 A3002 RMK A01 T03350105  RH  025%=      5-min Rain = 0
KAM3 031753Z 26005KT 33/11 A3002 RMK A01 T03320106  RH  025%=      5-min Rain = 0
KAM3 031754Z 26005KT 33/11 A3002 RMK A01 T03340109  RH  025%=      5-min Rain = 0
KAM3 031755Z 27006KT 34/11 A3002 RMK A01 T03380107  RH  025%=      5-min Rain = 0
KAM3 031756Z 23006G11KT 34/11 A3002 RMK A01 T03380106  RH  024%=      5-min Rain = 0
KAM3 031757Z 23010KT 34/10 A3002 RMK A01 T03380104  RH  024%=      5-min Rain = 0
KAM3 031758Z 20006KT 34/10 A3002 RMK A01 T03370103  RH  024%=      5-min Rain = 0
KAM3 031759Z 27006KT 33/10 A3002 RMK A01 T03330101  RH  024%=      5-min Rain = 0
KAM3 031800Z 28009KT 33/10 A3001 RMK A01 T03340103  RH  024%=      5-min Rain = 0
KAM3 031801Z 28006KT 34/10 A3002 RMK A01 T03350102  RH  024%=      5-min Rain = 0
KAM3 031802Z 30003KT 33/10 A3002 RMK A01 T03340100  RH  024%=      5-min Rain = 0
KAM3 031803Z 27004KT 33/10 A3002 RMK A01 T03330097  RH  023%=      5-min Rain = 0
KAM3 031804Z 28004KT 33/10 A3002 RMK A01 T03310099  RH  024%=      5-min Rain = 0
KAM3 031805Z 33001KT 33/11 A3001 RMK A01 T03300105  RH  025%=      5-min Rain = 0
KAM3 031806Z 26001KT 33/10 A3001 RMK A01 T03310098  RH  024%=      5-min Rain = 0
KAM3 031807Z 25003KT 33/10 A3001 RMK A01 T03330104  RH  025%=      5-min Rain = 0
KAM3 031808Z 29003KT 34/11 A3001 RMK A01 T03350105  RH  025%=      5-min Rain = 0
KAM3 031809Z 29006KT 34/11 A3001 RMK A01 T03350106  RH  025%=      5-min Rain = 0
KAM3 031810Z 29005KT 33/10 A3001 RMK A01 T03340104  RH  024%=      5-min Rain = 0
KAM3 031811Z 29003KT 33/10 A3001 RMK A01 T03320102  RH  025%=      5-min Rain = 0
KAM3 031812Z 26003KT 33/11 A3001 RMK A01 T03300105  RH  025%=      5-min Rain = 0
KAM3 031813Z 30004KT 33/10 A3001 RMK A01 T03320104  RH  025%=      5-min Rain = 0
KAM3 031814Z 36002KT 33/10 A3001 RMK A01 T03310101  RH  024%=      5-min Rain = 0
KAM3 031815Z 30004KT 33/11 A3001 RMK A01 T03310105  RH  025%=      5-min Rain = 0
KAM3 031816Z 31006KT 33/10 A3001 RMK A01 T03330103  RH  024%=      5-min Rain = 0
KAM3 031817Z 32005KT 33/10 A3001 RMK A01 T03330103  RH  025%=      5-min Rain = 0
KAM3 031818Z 31003KT 33/11 A3001 RMK A01 T03340105  RH  025%=      5-min Rain = 0
KAM3 031819Z 24002KT 34/10 A3001 RMK A01 T03350103  RH  024%=      5-min Rain = 0
KAM3 031820Z 22002KT 34/11 A3001 RMK A01 T03380106  RH  024%=      5-min Rain = 0
KAM3 031821Z 20007KT 34/11 A3001 RMK A01 T03440106  RH  024%=      5-min Rain = 0
KAM3 031822Z 23009KT 35/10 A30 RMK A01 T03460103  RH  023%=      5-min Rain = 0
KAM3 031823Z 23009KT 35/10 A30 RMK A01 T03450100  RH  022%=      5-min Rain = 0
KAM3 031824Z 23008KT 34/10 A30 RMK A01 T03440100  RH  023%=      5-min Rain = 0
KAM3 031825Z 25006KT 34/10 A30 RMK A01 T03420096  RH  022%=      5-min Rain = 0
KAM3 031826Z 21008KT 34/10 A30 RMK A01 T03400100  RH  023%=      5-min Rain = 0
KAM3 031827Z 24004KT 34/10 A30 RMK A01 T03380096  RH  023%=      5-min Rain = 0
KAM3 031828Z 24003KT 34/10 A30 RMK A01 T03350098  RH  023%=      5-min Rain = 0
KAM3 031829Z 23001KT 34/10 A30 RMK A01 T03350100  RH  024%=      5-min Rain = 0
KAM3 031830Z 24006KT 34/10 A30 RMK A01 T03370104  RH  024%=      5-min Rain = 0
KAM3 031831Z 25007KT 34/10 A30 RMK A01 T03400100  RH  023%=      5-min Rain = 0
KAM3 031832Z 23009KT 34/10 A30 RMK A01 T03410104  RH  024%=      5-min Rain = 0
KAM3 031833Z 23008KT 34/11 A30 RMK A01 T03440105  RH  023%=      5-min Rain = 0
KAM3 031834Z 22006G11KT 34/10 A30 RMK A01 T03440102  RH  023%=      5-min Rain = 0
KAM3 031835Z 22005KT 34/10 A30 RMK A01 T03420104  RH  023%=      5-min Rain = 0
KAM3 031836Z 24005KT 34/10 A30 RMK A01 T03430102  RH  023%=      5-min Rain = 0
KAM3 031837Z 24006KT 34/10 A30 RMK A01 T03420102  RH  023%=      5-min Rain = 0
KAM3 031838Z 25005KT 34/10 A30 RMK A01 T03400102  RH  023%=      5-min Rain = 0
KAM3 031839Z 23010KT 34/11 A30 RMK A01 T03420106  RH  024%=      5-min Rain = 0
KAM3 031840Z 24008KT 34/10 A30 RMK A01 T03440104  RH  023%=      5-min Rain = 0
KAM3 031841Z 22009KT 34/10 A2999 RMK A01 T03430103  RH  023%=      5-min Rain = 0
KAM3 031842Z 22010KT 34/11 A2999 RMK A01 T03440105  RH  023%=      5-min Rain = 0
KAM3 031843Z 21006KT 34/10 A30 RMK A01 T03430097  RH  022%=      5-min Rain = 0
KAM3 031844Z 21003KT 34/10 A30 RMK A01 T03390095  RH  022%=      5-min Rain = 0
KAM3 031845Z 21001KT 34/09 A2999 RMK A01 T03380094  RH  022%=      5-min Rain = 0
KAM3 031846Z 05001KT 34/09 A2999 RMK A01 T03390094  RH  022%=      5-min Rain = 0
KAM3 031847Z 06001KT 34/09 A2999 RMK A01 T03400094  RH  022%=      5-min Rain = 0
KAM3 031848Z 14002KT 34/10 A2999 RMK A01 T03390095  RH  022%=      5-min Rain = 0
KAM3 031849Z 16002KT 34/10 A2999 RMK A01 T03390096  RH  023%=      5-min Rain = 0
KAM3 031850Z 19003KT 34/10 A2999 RMK A01 T03400103  RH  024%=      5-min Rain = 0
KAM3 031851Z 23007KT 34/10 A2999 RMK A01 T03430101  RH  023%=      5-min Rain = 0
KAM3 031852Z 23006G12KT 34/10 A2999 RMK A01 T03420101  RH  023%=      5-min Rain = 0
KAM3 031853Z 25005KT 34/10 A2999 RMK A01 T03410102  RH  023%=      5-min Rain = 0
KAM3 031854Z 23004KT 34/10 A2999 RMK A01 T03410101  RH  023%=      5-min Rain = 0
KAM3 031855Z 22005G11KT 34/10 A2999 RMK A01 T03400102  RH  023%=      5-min Rain = 0
KAM3 031856Z 25008KT 34/10 A2999 RMK A01 T03410104  RH  024%=      5-min Rain = 0
KAM3 031857Z 23006KT 34/10 A2999 RMK A01 T03430099  RH  023%=      5-min Rain = 0
KAM3 031858Z 25004KT 34/10 A2999 RMK A01 T03400098  RH  023%=      5-min Rain = 0
KAM3 031859Z 26002KT 34/10 A2999 RMK A01 T03390098  RH  023%=      5-min Rain = 0
KAM3 031900Z 25004KT 34/10 A2999 RMK A01 T03380100  RH  023%=      5-min Rain = 0
KAM3 031901Z 21004KT 34/10 A2999 RMK A01 T03380099  RH  023%=      5-min Rain = 0
KAM3 031902Z 17007KT 34/10 A2999 RMK A01 T03390103  RH  024%=      5-min Rain = 0
KAM3 031903Z 17007KT 34/10 A2999 RMK A01 T03420101  RH  023%=      5-min Rain = 0
KAM3 031904Z 15007KT 34/10 A2998 RMK A01 T03420101  RH  023%=      5-min Rain = 0
KAM3 031905Z 15006G11KT 34/10 A2998 RMK A01 T03400102  RH  023%=      5-min Rain = 0
KAM3 031906Z 14007KT 34/10 A2998 RMK A01 T03400101  RH  023%=      5-min Rain = 0
KAM3 031907Z 14007KT 34/10 A2998 RMK A01 T03410103  RH  023%=      5-min Rain = 0
KAM3 031908Z 14009KT 35/11 A2998 RMK A01 T03450105  RH  023%=      5-min Rain = 0
KAM3 031909Z 15008KT 35/11 A2998 RMK A01 T03470106  RH  023%=      5-min Rain = 0
KAM3 031910Z 16007KT 35/10 A2998 RMK A01 T03470102  RH  023%=      5-min Rain = 0
KAM3 031911Z 14008KT 35/11 A2998 RMK A01 T03450106  RH  023%=      5-min Rain = 0
KAM3 031912Z 12008KT 35/11 A2998 RMK A01 T03480108  RH  023%=      5-min Rain = 0
KAM3 031913Z 16007KT 35/11 A2998 RMK A01 T03520110  RH  023%=      5-min Rain = 0
KAM3 031914Z 16007KT 35/11 A2998 RMK A01 T03540107  RH  022%=      5-min Rain = 0
KAM3 031915Z 18009KT 35/11 A2998 RMK A01 T03520109  RH  023%=      5-min Rain = 0
KAM3 031916Z 19008KT 35/11 A2998 RMK A01 T03540108  RH  022%=      5-min Rain = 0
KAM3 031917Z 20006KT 35/11 A2998 RMK A01 T03520107  RH  023%=      5-min Rain = 0
KAM3 031918Z 22008KT 35/11 A2998 RMK A01 T03510107  RH  023%=      5-min Rain = 0
KAM3 031919Z 18007KT 35/11 A2998 RMK A01 T03520109  RH  023%=      5-min Rain = 0
KAM3 031920Z 19004KT 35/11 A2998 RMK A01 T03520105  RH  022%=      5-min Rain = 0
KAM3 031921Z 19008KT 35/11 A2998 RMK A01 T03500107  RH  023%=      5-min Rain = 0
KAM3 031922Z 18005KT 35/11 A2998 RMK A01 T03500107  RH  023%=      5-min Rain = 0
KAM3 031923Z 23006KT 35/11 A2998 RMK A01 T03510106  RH  023%=      5-min Rain = 0
KAM3 031924Z 25005KT 35/10 A2998 RMK A01 T03520101  RH  022%=      5-min Rain = 0
KAM3 031925Z 24003KT 35/10 A2998 RMK A01 T03520101  RH  022%=      5-min Rain = 0
KAM3 031926Z 27004KT 35/10 A2998 RMK A01 T03540101  RH  021%=      5-min Rain = 0
KAM3 031927Z 24003KT 35/09 A2998 RMK A01 T03520092  RH  020%=      5-min Rain = 0
KAM3 031928Z 25003KT 35/10 A2997 RMK A01 T03490095  RH  021%=      5-min Rain = 0
KAM3 031929Z 22005KT 35/10 A2997 RMK A01 T03500103  RH  022%=      5-min Rain = 0
KAM3 031930Z 18005KT 35/11 A2998 RMK A01 T03540106  RH  022%=      5-min Rain = 0
KAM3 031931Z 17004KT 35/10 A2997 RMK A01 T03530104  RH  022%=      5-min Rain = 0
KAM3 031932Z 17005KT 35/10 A2997 RMK A01 T03500101  RH  022%=      5-min Rain = 0
KAM3 031933Z 16006KT 35/10 A2997 RMK A01 T03460101  RH  022%=      5-min Rain = 0
KAM3 031934Z 14007KT 34/10 A2997 RMK A01 T03430099  RH  023%=      5-min Rain = 0
KAM3 031935Z 14004KT 34/10 A2997 RMK A01 T03400100  RH  023%=      5-min Rain = 0
KAM3 031936Z 08001KT 34/10 A2997 RMK A01 T03380098  RH  023%=      5-min Rain = 0
KAM3 031937Z 22002G8KT 34/10 A2997 RMK A01 T03370101  RH  023%=      5-min Rain = 0
KAM3 031938Z 22007KT 34/10 A2997 RMK A01 T03410104  RH  024%=      5-min Rain = 0
KAM3 031939Z 20006KT 35/10 A2997 RMK A01 T03460101  RH  023%=      5-min Rain = 0
KAM3 031940Z 17004KT 35/10 A2997 RMK A01 T03460101  RH  022%=      5-min Rain = 0
KAM3 031941Z 20003KT 35/11 A2997 RMK A01 T03460105  RH  023%=      5-min Rain = 0
KAM3 031942Z 22008KT 35/10 A2997 RMK A01 T03480102  RH  022%=      5-min Rain = 0
KAM3 031943Z 23009KT 35/10 A2997 RMK A01 T03470102  RH  023%=      5-min Rain = 0
KAM3 031944Z 23007KT 34/10 A2997 RMK A01 T03440100  RH  023%=      5-min Rain = 0
KAM3 031945Z 24005KT 34/10 A2997 RMK A01 T03430102  RH  023%=      5-min Rain = 0
KAM3 031946Z 22008KT 34/10 A2997 RMK A01 T03420100  RH  023%=      5-min Rain = 0
KAM3 031947Z 22007KT 34/10 A2997 RMK A01 T03420100  RH  023%=      5-min Rain = 0
KAM3 031948Z 21005KT 34/10 A2997 RMK A01 T03420099  RH  023%=      5-min Rain = 0
KAM3 031949Z 17005KT 34/10 A2997 RMK A01 T03400098  RH  023%=      5-min Rain = 0
KAM3 031950Z 19004KT 34/10 A2997 RMK A01 T03380096  RH  023%=      5-min Rain = 0
KAM3 031951Z 25003KT 34/10 A2997 RMK A01 T03370097  RH  023%=      5-min Rain = 0
KAM3 031952Z 30003KT 34/10 A2997 RMK A01 T03360097  RH  023%=      5-min Rain = 0
KAM3 031953Z 31004KT 34/10 A2997 RMK A01 T03360098  RH  023%=      5-min Rain = 0
KAM3 031954Z 30003KT 34/10 A2997 RMK A01 T03350099  RH  023%=      5-min Rain = 0
KAM3 031955Z 30002KT 34/10 A2997 RMK A01 T03350099  RH  024%=      5-min Rain = 0
KAM3 031956Z 24002KT 34/10 A2997 RMK A01 T03350097  RH  023%=      5-min Rain = 0
KAM3 031957Z 20003KT 34/10 A2997 RMK A01 T03350099  RH  024%=      5-min Rain = 0
KAM3 031958Z 19003KT 34/10 A2997 RMK A01 T03350098  RH  024%=      5-min Rain = 0
KAM3 031959Z 18005KT 34/10 A2997 RMK A01 T03350100  RH  024%=      5-min Rain = 0
KAM3 032000Z 17006KT 34/10 A2997 RMK A01 T03360100  RH  023%=      5-min Rain = 0
KAM3 032001Z 17007KT 34/10 A2997 RMK A01 T03360098  RH  023%=      5-min Rain = 0
KAM3 032002Z 16007KT 34/10 A2997 RMK A01 T03360097  RH  023%=      5-min Rain = 0
KAM3 032003Z 16006KT 34/10 A2997 RMK A01 T03360095  RH  023%=      5-min Rain = 0
KAM3 032004Z 15005KT 34/10 A2997 RMK A01 T03350096  RH  023%=      5-min Rain = 0
KAM3 032005Z 14005KT 33/10 A2996 RMK A01 T03340097  RH  023%=      5-min Rain = 0
KAM3 032006Z 11003KT 33/10 A2996 RMK A01 T03340096  RH  023%=      5-min Rain = 0
KAM3 032007Z 13002KT 33/10 A2996 RMK A01 T03340098  RH  023%=      5-min Rain = 0
KAM3 032008Z 11007KT 34/10 A2996 RMK A01 T03350099  RH  024%=      5-min Rain = 0
KAM3 032009Z 13007KT 34/10 A2996 RMK A01 T03350097  RH  023%=      5-min Rain = 0
KAM3 032010Z 14006KT 34/10 A2996 RMK A01 T03350095  RH  023%=      5-min Rain = 0
KAM3 032011Z 13005KT 34/10 A2996 RMK A01 T03350095  RH  023%=      5-min Rain = 0
KAM3 032012Z 11005KT 34/10 A2996 RMK A01 T03350098  RH  023%=      5-min Rain = 0
KAM3 032013Z 10005KT 34/10 A2996 RMK A01 T03380095  RH  023%=      5-min Rain = 0
KAM3 032014Z 11005KT 34/10 A2996 RMK A01 T03390097  RH  023%=      5-min Rain = 0
KAM3 032015Z 11005KT 34/10 A2996 RMK A01 T03410097  RH  022%=      5-min Rain = 0
KAM3 032016Z 12003KT 34/10 A2996 RMK A01 T03420096  RH  022%=      5-min Rain = 0
KAM3 032017Z 10002KT 34/10 A2996 RMK A01 T03430096  RH  022%=      5-min Rain = 0
KAM3 032018Z 10002KT 34/09 A2996 RMK A01 T03430094  RH  022%=      5-min Rain = 0
KAM3 032019Z 11003KT 34/10 A2996 RMK A01 T03420095  RH  022%=      5-min Rain = 0
KAM3 032020Z 12008KT 34/10 A2996 RMK A01 T03420097  RH  022%=      5-min Rain = 0
KAM3 032021Z 11008KT 34/10 A2996 RMK A01 T03410095  RH  022%=      5-min Rain = 0
KAM3 032022Z 12007KT 34/10 A2996 RMK A01 T03390097  RH  023%=      5-min Rain = 0
KAM3 032023Z 12004KT 34/09 A2996 RMK A01 T03380092  RH  022%=      5-min Rain = 0
KAM3 032024Z 11003KT 34/10 A2996 RMK A01 T03380096  RH  023%=      5-min Rain = 0
KAM3 032025Z 12004KT 34/10 A2996 RMK A01 T03410100  RH  023%=      5-min Rain = 0
KAM3 032026Z 16004KT 35/10 A2996 RMK A01 T03470102  RH  023%=      5-min Rain = 0
KAM3 032027Z 16006KT 35/10 A2996 RMK A01 T03480095  RH  021%=      5-min Rain = 0
KAM3 032028Z 18003KT 35/09 A2996 RMK A01 T03450092  RH  021%=      5-min Rain = 0
KAM3 032029Z 20003KT 35/09 A2995 RMK A01 T03450094  RH  022%=      5-min Rain = 0
KAM3 032030Z 15004KT 35/10 A2995 RMK A01 T03470096  RH  022%=      5-min Rain = 0
KAM3 032031Z 11006KT 35/10 A2995 RMK A01 T03490097  RH  021%=      5-min Rain = 0
KAM3 032032Z 12006KT 35/10 A2995 RMK A01 T03500098  RH  021%=      5-min Rain = 0
KAM3 032033Z 11004KT 35/10 A2995 RMK A01 T03500095  RH  021%=      5-min Rain = 0
KAM3 032034Z 10004KT 35/09 A2995 RMK A01 T03480094  RH  021%=      5-min Rain = 0
KAM3 032035Z 11005KT 35/10 A2995 RMK A01 T03470096  RH  022%=      5-min Rain = 0
KAM3 032036Z 17008KT 35/10 A2995 RMK A01 T03460097  RH  022%=      5-min Rain = 0
KAM3 032037Z 19006KT 35/09 A2995 RMK A01 T03460094  RH  021%=      5-min Rain = 0
KAM3 032038Z 18005KT 35/09 A2995 RMK A01 T03460093  RH  021%=      5-min Rain = 0
KAM3 032039Z 20001KT 35/09 A2995 RMK A01 T03460093  RH  021%=      5-min Rain = 0
KAM3 032040Z 17005KT 35/10 A2995 RMK A01 T03490102  RH  022%=      5-min Rain = 0
KAM3 032041Z 18010KT 36/11 A2995 RMK A01 T03560106  RH  022%=      5-min Rain = 0
KAM3 032042Z 17009KT 36/10 A2995 RMK A01 T03580099  RH  021%=      5-min Rain = 0
KAM3 032043Z 13007KT 35/10 A2995 RMK A01 T03540099  RH  021%=      5-min Rain = 0
KAM3 032044Z 13006KT 35/10 A2995 RMK A01 T03500095  RH  021%=      5-min Rain = 0
KAM3 032045Z 14006KT 35/10 A2995 RMK A01 T03470098  RH  022%=      5-min Rain = 0
KAM3 032046Z 14008KT 35/10 A2995 RMK A01 T03460097  RH  022%=      5-min Rain = 0
KAM3 032047Z 13007KT 34/10 A2995 RMK A01 T03430095  RH  022%=      5-min Rain = 0
KAM3 032048Z 13007KT 34/10 A2995 RMK A01 T03430100  RH  023%=      5-min Rain = 0
KAM3 032049Z 12005KT 35/10 A2995 RMK A01 T03460103  RH  023%=      5-min Rain = 0
KAM3 032050Z 12006KT 35/11 A2995 RMK A01 T03520105  RH  022%=      5-min Rain = 0
KAM3 032051Z 13009KT 36/11 A2995 RMK A01 T03580108  RH  022%=      5-min Rain = 0
KAM3 032052Z 13010KT 36/10 A2994 RMK A01 T03610101  RH  021%=      5-min Rain = 0
KAM3 032053Z 12008KT 36/10 A2994 RMK A01 T03580100  RH  021%=      5-min Rain = 0
KAM3 032054Z 12008KT 36/10 A2994 RMK A01 T03550104  RH  022%=      5-min Rain = 0
KAM3 032055Z 11006KT 36/10 A2994 RMK A01 T03580100  RH  021%=      5-min Rain = 0
KAM3 032056Z 15006KT 36/10 A2994 RMK A01 T03560104  RH  022%=      5-min Rain = 0
KAM3 032057Z 14006KT 36/10 A2994 RMK A01 T03590101  RH  021%=      5-min Rain = 0
KAM3 032058Z 16006KT 36/10 A2994 RMK A01 T03580101  RH  021%=      5-min Rain = 0
KAM3 032059Z 14003KT 36/10 A2994 RMK A01 T03580099  RH  021%=      5-min Rain = 0
KAM3 032100Z 12004KT 36/10 A2994 RMK A01 T03570099  RH  021%=      5-min Rain = 0
KAM3 032101Z 15006KT 36/10 A2994 RMK A01 T03570099  RH  021%=      5-min Rain = 0
KAM3 032102Z 16003KT 36/11 A2994 RMK A01 T03560105  RH  022%=      5-min Rain = 0
KAM3 032103Z 15003KT 36/10 A2994 RMK A01 T03610103  RH  021%=      5-min Rain = 0
KAM3 032104Z 15005KT 36/10 A2994 RMK A01 T03620102  RH  021%=      5-min Rain = 0
KAM3 032105Z 13006KT 36/10 A2994 RMK A01 T03610100  RH  020%=      5-min Rain = 0
KAM3 032106Z 16007KT 36/10 A2994 RMK A01 T03590100  RH  021%=      5-min Rain = 0
KAM3 032107Z 18008KT 36/10 A2994 RMK A01 T03600099  RH  020%=      5-min Rain = 0
KAM3 032108Z 17007KT 37/10 A2994 RMK A01 T03660102  RH  020%=      5-min Rain = 0
KAM3 032109Z 20008KT 37/10 A2994 RMK A01 T03680096  RH  019%=      5-min Rain = 0
KAM3 032110Z 21008KT 37/09 A2994 RMK A01 T03660093  RH  019%=      5-min Rain = 0
KAM3 032111Z 22006KT 36/10 A2994 RMK A01 T03630095  RH  020%=      5-min Rain = 0
KAM3 032112Z 23006KT 36/09 A2994 RMK A01 T03620090  RH  019%=      5-min Rain = 0
KAM3 032113Z 25005KT 36/09 A2994 RMK A01 T03580089  RH  019%=      5-min Rain = 0
KAM3 032114Z 25005G13KT 36/09 A2993 RMK A01 T03570092  RH  020%=      5-min Rain = 0
KAM3 032115Z 20009G14KT 36/10 A2994 RMK A01 T03600095  RH  020%=      5-min Rain = 0
KAM3 032116Z 19008KT 37/10 A2994 RMK A01 T03660096  RH  019%=      5-min Rain = 0
KAM3 032117Z 21010KT 37/09 A2994 RMK A01 T03670094  RH  019%=      5-min Rain = 0
KAM3 032118Z 21008KT 37/09 A2994 RMK A01 T03680091  RH  019%=      5-min Rain = 0
KAM3 032119Z 22008KT 36/09 A2994 RMK A01 T03630088  RH  019%=      5-min Rain = 0
KAM3 032120Z 24005KT 36/09 A2994 RMK A01 T03590089  RH  019%=      5-min Rain = 0
KAM3 032121Z 21008KT 36/09 A2994 RMK A01 T03560090  RH  020%=      5-min Rain = 0
KAM3 032122Z 21008KT 35/09 A2993 RMK A01 T03530088  RH  020%=      5-min Rain = 0
KAM3 032123Z 20007KT 35/09 A2994 RMK A01 T03520088  RH  020%=      5-min Rain = 0
KAM3 032124Z 17003KT 35/09 A2993 RMK A01 T03500087  RH  020%=      5-min Rain = 0
KAM3 032125Z 19002KT 35/09 A2993 RMK A01 T03490085  RH  020%=      5-min Rain = 0
KAM3 032126Z 22003KT 35/09 A2993 RMK A01 T03490088  RH  020%=      5-min Rain = 0
KAM3 032127Z 23009KT 35/09 A2993 RMK A01 T03490092  RH  021%=      5-min Rain = 0
KAM3 032128Z 23012KT 35/09 A2993 RMK A01 T03490093  RH  021%=      5-min Rain = 0
KAM3 032129Z 23010KT 35/09 A2993 RMK A01 T03480090  RH  021%=      5-min Rain = 0
KAM3 032130Z 21007KT 35/09 A2993 RMK A01 T03470091  RH  021%=      5-min Rain = 0
KAM3 032131Z 22004KT 35/09 A2993 RMK A01 T03450089  RH  021%=      5-min Rain = 0
KAM3 032132Z 22003KT 35/09 A2993 RMK A01 T03450092  RH  021%=      5-min Rain = 0
KAM3 032133Z 22009KT 35/09 A2993 RMK A01 T03480094  RH  021%=      5-min Rain = 0
KAM3 032134Z 22007KT 35/09 A2993 RMK A01 T03540093  RH  020%=      5-min Rain = 0
KAM3 032135Z 19006KT 36/09 A2993 RMK A01 T03560093  RH  020%=      5-min Rain = 0
KAM3 032136Z 21008KT 36/10 A2993 RMK A01 T03560095  RH  020%=      5-min Rain = 0
KAM3 032137Z 22013G19KT 36/10 A2992 RMK A01 T03620099  RH  020%=      5-min Rain = 0
KAM3 032138Z 23016KT 37/09 A2992 RMK A01 T03660094  RH  019%=      5-min Rain = 0
KAM3 032139Z 22012KT 37/10 A2992 RMK A01 T03650096  RH  020%=      5-min Rain = 0
KAM3 032140Z 21016KT 37/10 A2992 RMK A01 T03680095  RH  019%=      5-min Rain = 0
KAM3 032141Z 22015KT 37/09 A2992 RMK A01 T03660092  RH  019%=      5-min Rain = 0
KAM3 032142Z 23016G21KT 36/09 A2992 RMK A01 T03620094  RH  020%=      5-min Rain = 0
KAM3 032143Z 23017KT 36/10 A2992 RMK A01 T03620098  RH  020%=      5-min Rain = 0
KAM3 032144Z 22017KT 36/10 A2992 RMK A01 T03630095  RH  020%=      5-min Rain = 0
KAM3 032145Z 22014KT 36/10 A2992 RMK A01 T03610095  RH  020%=      5-min Rain = 0
KAM3 032146Z 22014KT 36/09 A2992 RMK A01 T03620093  RH  019%=      5-min Rain = 0
KAM3 032147Z 21013KT 36/09 A2992 RMK A01 T03610092  RH  019%=      5-min Rain = 0
KAM3 032148Z 22013KT 36/09 A2992 RMK A01 T03600092  RH  020%=      5-min Rain = 0
KAM3 032149Z 22013KT 36/09 A2992 RMK A01 T03590092  RH  020%=      5-min Rain = 0
KAM3 032150Z 23012KT 36/09 A2992 RMK A01 T03600091  RH  019%=      5-min Rain = 0
KAM3 032151Z 24012KT 36/09 A2992 RMK A01 T03600093  RH  020%=      5-min Rain = 0
KAM3 032152Z 24012KT 36/09 A2992 RMK A01 T03600092  RH  020%=      5-min Rain = 0
KAM3 032153Z 23013KT 36/09 A2992 RMK A01 T03610092  RH  020%=      5-min Rain = 0
KAM3 032154Z 22009KT 36/09 A2992 RMK A01 T03610091  RH  019%=      5-min Rain = 0
KAM3 032155Z 20007KT 36/09 A2992 RMK A01 T03590091  RH  019%=      5-min Rain = 0
KAM3 032156Z 23009KT 36/09 A2992 RMK A01 T03580092  RH  020%=      5-min Rain = 0
KAM3 032157Z 24012KT 36/09 A2992 RMK A01 T03620093  RH  020%=      5-min Rain = 0
KAM3 032158Z 24009KT 36/09 A2992 RMK A01 T03630093  RH  019%=      5-min Rain = 0
KAM3 032159Z 23006KT 37/10 A2992 RMK A01 T03650096  RH  020%=      5-min Rain = 0
KAM3 032200Z 20007KT 37/10 A2992 RMK A01 T03690096  RH  019%=      5-min Rain = 0
KAM3 032201Z 23003KT 37/09 A2992 RMK A01 T03690092  RH  019%=      5-min Rain = 0
KAM3 032202Z 18001KT 37/09 A2992 RMK A01 T03680091  RH  019%=      5-min Rain = 0
KAM3 032203Z 20009G14KT 37/09 A2992 RMK A01 T03670091  RH  019%=      5-min Rain = 0
KAM3 032204Z 22011KT 37/09 A2992 RMK A01 T03660090  RH  019%=      5-min Rain = 0
KAM3 032205Z 23010KT 36/09 A2992 RMK A01 T03640090  RH  019%=      5-min Rain = 0
KAM3 032206Z 23008KT 36/09 A2992 RMK A01 T03620088  RH  019%=      5-min Rain = 0
KAM3 032207Z 24007KT 36/09 A2992 RMK A01 T03600090  RH  019%=      5-min Rain = 0
KAM3 032208Z 22009G14KT 36/09 A2992 RMK A01 T03590090  RH  019%=      5-min Rain = 0
KAM3 032209Z 22009KT 36/09 A2992 RMK A01 T03620089  RH  019%=      5-min Rain = 0
KAM3 032210Z 23006KT 36/09 A2992 RMK A01 T03620088  RH  019%=      5-min Rain = 0
KAM3 032211Z 23006KT 36/09 A2991 RMK A01 T03600087  RH  019%=      5-min Rain = 0
KAM3 032212Z 19012KT 36/09 A2991 RMK A01 T03600089  RH  019%=      5-min Rain = 0
KAM3 032213Z 20010KT 36/09 A2991 RMK A01 T03620088  RH  019%=      5-min Rain = 0
KAM3 032214Z 20007KT 36/09 A2991 RMK A01 T03620088  RH  019%=      5-min Rain = 0
KAM3 032215Z 21009KT 36/09 A2991 RMK A01 T03610089  RH  019%=      5-min Rain = 0
KAM3 032216Z 20010KT 36/09 A2991 RMK A01 T03600090  RH  019%=      5-min Rain = 0
KAM3 032217Z 21009KT 36/09 A2991 RMK A01 T03590091  RH  020%=      5-min Rain = 0
KAM3 032218Z 21009KT 36/09 A2991 RMK A01 T03600091  RH  019%=      5-min Rain = 0
KAM3 032219Z 19012KT 36/09 A2991 RMK A01 T03610089  RH  019%=      5-min Rain = 0
KAM3 032220Z 18009KT 36/09 A2991 RMK A01 T03610088  RH  019%=      5-min Rain = 0
KAM3 032221Z 18010KT 36/09 A2991 RMK A01 T03590086  RH  019%=      5-min Rain = 0
KAM3 032222Z 17009KT 36/09 A2991 RMK A01 T03590086  RH  019%=      5-min Rain = 0
KAM3 032223Z 17009KT 36/09 A2991 RMK A01 T03590086  RH  019%=      5-min Rain = 0
KAM3 032224Z 17010KT 36/09 A2991 RMK A01 T03610088  RH  019%=      5-min Rain = 0
KAM3 032225Z 17008KT 36/08 A2991 RMK A01 T03610082  RH  018%=      5-min Rain = 0
KAM3 032226Z 19011KT 36/08 A2991 RMK A01 T03570084  RH  019%=      5-min Rain = 0
KAM3 032227Z 18010KT 36/08 A2991 RMK A01 T03570080  RH  018%=      5-min Rain = 0
KAM3 032228Z 18008KT 36/08 A2991 RMK A01 T03570081  RH  018%=      5-min Rain = 0
KAM3 032229Z 18005KT 36/08 A2991 RMK A01 T03560078  RH  018%=      5-min Rain = 0
KAM3 032230Z 18006KT 35/08 A2991 RMK A01 T03540080  RH  019%=      5-min Rain = 0
KAM3 032231Z 17003KT 35/08 A2991 RMK A01 T03530080  RH  019%=      5-min Rain = 0
KAM3 032232Z 18005KT 35/08 A2991 RMK A01 T03530083  RH  019%=      5-min Rain = 0
KAM3 032233Z 16009KT 36/09 A2991 RMK A01 T03570087  RH  019%=      5-min Rain = 0
KAM3 032234Z 15008KT 36/09 A2991 RMK A01 T03590086  RH  019%=      5-min Rain = 0
KAM3 032235Z 17008KT 36/09 A299 RMK A01 T03590085  RH  019%=      5-min Rain = 0
KAM3 032236Z 17010KT 36/09 A299 RMK A01 T03580085  RH  019%=      5-min Rain = 0
KAM3 032237Z 18011KT 36/09 A299 RMK A01 T03580085  RH  019%=      5-min Rain = 0
KAM3 032238Z 20010KT 36/09 A2991 RMK A01 T03590087  RH  019%=      5-min Rain = 0
KAM3 032239Z 19005KT 36/09 A2991 RMK A01 T03600086  RH  019%=      5-min Rain = 0
KAM3 032240Z 23005KT 36/09 A299 RMK A01 T03590090  RH  019%=      5-min Rain = 0
KAM3 032241Z 20004KT 36/09 A299 RMK A01 T03620091  RH  019%=      5-min Rain = 0
KAM3 032242Z 20006KT 36/09 A299 RMK A01 T03630088  RH  019%=      5-min Rain = 0
KAM3 032243Z 23005KT 36/09 A299 RMK A01 T03610087  RH  019%=      5-min Rain = 0
KAM3 032244Z 21006KT 36/09 A299 RMK A01 T03580086  RH  019%=      5-min Rain = 0
KAM3 032245Z 22008KT 36/09 A299 RMK A01 T03590091  RH  020%=      5-min Rain = 0
KAM3 032246Z 21008KT 36/09 A299 RMK A01 T03640091  RH  019%=      5-min Rain = 0
KAM3 032247Z 22008KT 36/09 A299 RMK A01 T03640088  RH  019%=      5-min Rain = 0
KAM3 032248Z 23008KT 36/09 A299 RMK A01 T03620087  RH  019%=      5-min Rain = 0
KAM3 032249Z 22007KT 36/09 A299 RMK A01 T03610088  RH  019%=      5-min Rain = 0
KAM3 032250Z 21004KT 36/09 A299 RMK A01 T03590086  RH  019%=      5-min Rain = 0
KAM3 032251Z 23006KT 36/09 A299 RMK A01 T03580086  RH  019%=      5-min Rain = 0
KAM3 032252Z 25005KT 36/09 A299 RMK A01 T03570087  RH  019%=      5-min Rain = 0
KAM3 032253Z 21005KT 36/09 A299 RMK A01 T03560086  RH  019%=      5-min Rain = 0
KAM3 032254Z 18004KT 36/09 A299 RMK A01 T03560086  RH  019%=      5-min Rain = 0
KAM3 032255Z 16008KT 36/09 A299 RMK A01 T03550089  RH  020%=      5-min Rain = 0
KAM3 032256Z 17009KT 36/09 A299 RMK A01 T03580090  RH  020%=      5-min Rain = 0
KAM3 032257Z 20013KT 36/09 A299 RMK A01 T03580091  RH  020%=      5-min Rain = 0
KAM3 032258Z 20008KT 36/09 A299 RMK A01 T03580090  RH  019%=      5-min Rain = 0
KAM3 032259Z 20007KT 36/09 A299 RMK A01 T03580090  RH  019%=      5-min Rain = 0
KAM3 032300Z 23010KT 36/09 A299 RMK A01 T03590091  RH  020%=      5-min Rain = 0
KAM3 032301Z 22006KT 36/09 A299 RMK A01 T03590088  RH  019%=      5-min Rain = 0
KAM3 032302Z 21003KT 36/09 A299 RMK A01 T03570092  RH  020%=      5-min Rain = 0
KAM3 032303Z 21006KT 36/09 A299 RMK A01 T03600091  RH  019%=      5-min Rain = 0
KAM3 032304Z 22006KT 36/09 A299 RMK A01 T03610088  RH  019%=      5-min Rain = 0
KAM3 032305Z 22006KT 36/09 A299 RMK A01 T03580087  RH  019%=      5-min Rain = 0
KAM3 032306Z 22008KT 36/09 A299 RMK A01 T03560088  RH  019%=      5-min Rain = 0
KAM3 032307Z 21011KT 36/09 A299 RMK A01 T03570087  RH  019%=      5-min Rain = 0
KAM3 032308Z 19010KT 36/09 A299 RMK A01 T03570088  RH  019%=      5-min Rain = 0
KAM3 032309Z 19009KT 36/09 A299 RMK A01 T03570087  RH  019%=      5-min Rain = 0
KAM3 032310Z 20009KT 36/09 A299 RMK A01 T03570087  RH  019%=      5-min Rain = 0
KAM3 032311Z 19007KT 36/09 A299 RMK A01 T03570087  RH  019%=      5-min Rain = 0
KAM3 032312Z 17005KT 36/09 A299 RMK A01 T03570086  RH  019%=      5-min Rain = 0
KAM3 032313Z 19006KT 36/09 A299 RMK A01 T03550085  RH  019%=      5-min Rain = 0
KAM3 032314Z 20006KT 36/09 A299 RMK A01 T03550087  RH  019%=      5-min Rain = 0
KAM3 032315Z 21004KT 36/09 A299 RMK A01 T03560086  RH  019%=      5-min Rain = 0
KAM3 032316Z 19010G15KT 36/09 A2989 RMK A01 T03560087  RH  019%=      5-min Rain = 0
KAM3 032317Z 16008KT 36/09 A2989 RMK A01 T03570089  RH  019%=      5-min Rain = 0
KAM3 032318Z 16007KT 36/09 A2989 RMK A01 T03580089  RH  019%=      5-min Rain = 0
KAM3 032319Z 17007KT 36/09 A2989 RMK A01 T03580089  RH  019%=      5-min Rain = 0
KAM3 032320Z 16006KT 36/09 A2989 RMK A01 T03590088  RH  019%=      5-min Rain = 0
KAM3 032321Z 19005KT 36/09 A2989 RMK A01 T03580088  RH  019%=      5-min Rain = 0
KAM3 032322Z 18007KT 36/09 A2989 RMK A01 T03580088  RH  019%=      5-min Rain = 0
KAM3 032323Z 16007KT 36/09 A2989 RMK A01 T03580089  RH  019%=      5-min Rain = 0
KAM3 032324Z 16009KT 36/09 A2989 RMK A01 T03590088  RH  019%=      5-min Rain = 0
KAM3 032325Z 16005KT 36/09 A2989 RMK A01 T03590088  RH  019%=      5-min Rain = 0
KAM3 032326Z 18006KT 36/09 A2989 RMK A01 T03570088  RH  019%=      5-min Rain = 0
KAM3 032327Z 17005KT 36/09 A2989 RMK A01 T03570089  RH  019%=      5-min Rain = 0
KAM3 032328Z 17005KT 36/09 A2989 RMK A01 T03580092  RH  020%=      5-min Rain = 0
KAM3 032329Z 16008KT 36/09 A2989 RMK A01 T03590089  RH  019%=      5-min Rain = 0
KAM3 032330Z 16009KT 36/09 A2989 RMK A01 T03580089  RH  019%=      5-min Rain = 0
KAM3 032331Z 16009KT 36/09 A2989 RMK A01 T03570089  RH  019%=      5-min Rain = 0
KAM3 032332Z 16006KT 36/09 A2989 RMK A01 T03550087  RH  019%=      5-min Rain = 0
KAM3 032333Z 17003KT 35/09 A2989 RMK A01 T03530086  RH  020%=      5-min Rain = 0
KAM3 032334Z 14004KT 35/09 A2989 RMK A01 T03530090  RH  020%=      5-min Rain = 0
KAM3 032335Z 14006KT 35/09 A2989 RMK A01 T03540090  RH  020%=      5-min Rain = 0
KAM3 032336Z 14004KT 35/09 A2989 RMK A01 T03540088  RH  020%=      5-min Rain = 0
KAM3 032337Z 14005KT 35/09 A2989 RMK A01 T03540089  RH  020%=      5-min Rain = 0
KAM3 032338Z 15005KT 35/09 A2989 RMK A01 T03540093  RH  020%=      5-min Rain = 0
KAM3 032339Z 14006KT 36/09 A2989 RMK A01 T03560094  RH  020%=      5-min Rain = 0
KAM3 032340Z 14005KT 36/09 A2989 RMK A01 T03570091  RH  020%=      5-min Rain = 0
KAM3 032341Z 12004KT 36/09 A2989 RMK A01 T03560087  RH  019%=      5-min Rain = 0
KAM3 032342Z 14002KT 35/09 A2988 RMK A01 T03530086  RH  020%=      5-min Rain = 0
KAM3 032343Z 15005KT 35/09 A2988 RMK A01 T03510089  RH  020%=      5-min Rain = 0
KAM3 032344Z 16005KT 35/09 A2988 RMK A01 T03530090  RH  020%=      5-min Rain = 0
KAM3 032345Z 18004KT 35/09 A2988 RMK A01 T03540089  RH  020%=      5-min Rain = 0
KAM3 032346Z 20007KT 36/09 A2988 RMK A01 T03550090  RH  020%=      5-min Rain = 0
KAM3 032347Z 20006KT 36/09 A2988 RMK A01 T03560087  RH  019%=      5-min Rain = 0
KAM3 032348Z 18004KT 36/09 A2988 RMK A01 T03560087  RH  019%=      5-min Rain = 0
KAM3 032349Z 19003KT 36/09 A2988 RMK A01 T03560089  RH  020%=      5-min Rain = 0
KAM3 032350Z 18005KT 36/09 A2988 RMK A01 T03570090  RH  020%=      5-min Rain = 0
KAM3 032351Z 18007KT 36/09 A2988 RMK A01 T03580090  RH  020%=      5-min Rain = 0
KAM3 032352Z 18006KT 36/09 A2988 RMK A01 T03560089  RH  020%=      5-min Rain = 0
KAM3 032353Z 16006KT 35/09 A2988 RMK A01 T03530090  RH  020%=      5-min Rain = 0
KAM3 032354Z 17008KT 35/09 A2988 RMK A01 T03530090  RH  020%=      5-min Rain = 0
KAM3 032355Z 16006KT 35/09 A2988 RMK A01 T03520091  RH  020%=      5-min Rain = 0
KAM3 032356Z 15006KT 35/09 A2988 RMK A01 T03510088  RH  020%=      5-min Rain = 0
KAM3 032357Z 15006KT 35/09 A2988 RMK A01 T03490089  RH  020%=      5-min Rain = 0
KAM3 032358Z 16007KT 35/09 A2988 RMK A01 T03490091  RH  021%=      5-min Rain = 0
KAM3 032359Z 16005KT 35/09 A2988 RMK A01 T03510094  RH  021%=      5-min Rain = 0
KAM3 040000Z 16004KT 35/10 A2989 RMK A01 T03530095  RH  021%=      5-min Rain = 0
KAM3 040001Z 13004KT 35/09 A2989 RMK A01 T03540094  RH  020%=      5-min Rain = 0
KAM3 040002Z 11006KT 35/09 A2989 RMK A01 T03540092  RH  020%=      5-min Rain = 0
KAM3 040003Z 12008KT 35/09 A2989 RMK A01 T03520091  RH  020%=      5-min Rain = 0
KAM3 040004Z 14003KT 35/09 A2989 RMK A01 T03490089  RH  020%=      5-min Rain = 0
KAM3 040005Z 10005KT 35/09 A2989 RMK A01 T03470093  RH  021%=      5-min Rain = 0
KAM3 040006Z 11005KT 35/09 A2989 RMK A01 T03470090  RH  021%=      5-min Rain = 0
KAM3 040007Z 12003KT 35/09 A2989 RMK A01 T03460093  RH  021%=      5-min Rain = 0
KAM3 040008Z 12004KT 35/09 A2989 RMK A01 T03450093  RH  021%=      5-min Rain = 0
KAM3 040009Z 14006KT 35/09 A2989 RMK A01 T03450094  RH  022%=      5-min Rain = 0
KAM3 040010Z 17006KT 34/09 A2989 RMK A01 T03440092  RH  021%=      5-min Rain = 0
KAM3 040011Z 18006KT 34/09 A2989 RMK A01 T03420093  RH  022%=      5-min Rain = 0
KAM3 040012Z 18007KT 34/09 A2989 RMK A01 T03420092  RH  022%=      5-min Rain = 0
KAM3 040013Z 18006KT 34/09 A2989 RMK A01 T03410090  RH  021%=      5-min Rain = 0
KAM3 040014Z 18006KT 34/09 A2989 RMK A01 T03410092  RH  022%=      5-min Rain = 0
KAM3 040015Z 17006KT 34/09 A2989 RMK A01 T03390092  RH  022%=      5-min Rain = 0
KAM3 040016Z 18007KT 34/09 A2989 RMK A01 T03390092  RH  022%=      5-min Rain = 0
KAM3 040017Z 18006KT 34/09 A2989 RMK A01 T03380091  RH  022%=      5-min Rain = 0
KAM3 040018Z 18007KT 34/09 A2989 RMK A01 T03370091  RH  022%=      5-min Rain = 0
KAM3 040019Z 18007KT 34/09 A2989 RMK A01 T03370091  RH  022%=      5-min Rain = 0
KAM3 040020Z 18007KT 34/09 A2989 RMK A01 T03360091  RH  022%=      5-min Rain = 0
KAM3 040021Z 18006KT 34/09 A2989 RMK A01 T03360091  RH  022%=      5-min Rain = 0
KAM3 040022Z 18007KT 34/09 A2989 RMK A01 T03360091  RH  022%=      5-min Rain = 0
KAM3 040023Z 18006KT 34/09 A2989 RMK A01 T03350091  RH  022%=      5-min Rain = 0
KAM3 040024Z 17007KT 34/09 A2989 RMK A01 T03350091  RH  022%=      5-min Rain = 0
KAM3 040025Z 18008KT 34/09 A2989 RMK A01 T03350091  RH  022%=      5-min Rain = 0
KAM3 040026Z 18008KT 33/09 A2989 RMK A01 T03340090  RH  022%=      5-min Rain = 0
KAM3 040027Z 18008KT 33/09 A299 RMK A01 T03340090  RH  022%=      5-min Rain = 0
KAM3 040028Z 19008KT 33/09 A299 RMK A01 T03340091  RH  022%=      5-min Rain = 0
KAM3 040029Z 19009KT 33/09 A299 RMK A01 T03330092  RH  023%=      5-min Rain = 0
KAM3 040030Z 18009KT 33/09 A299 RMK A01 T03330092  RH  023%=      5-min Rain = 0
KAM3 040031Z 19012KT 33/09 A299 RMK A01 T03320093  RH  023%=      5-min Rain = 0
KAM3 040032Z 20011KT 33/09 A299 RMK A01 T03320093  RH  023%=      5-min Rain = 0
KAM3 040033Z 19011KT 33/09 A299 RMK A01 T03330094  RH  023%=      5-min Rain = 0
KAM3 040034Z 19011KT 33/10 A299 RMK A01 T03330095  RH  023%=      5-min Rain = 0
KAM3 040035Z 19012KT 33/10 A299 RMK A01 T03330095  RH  023%=      5-min Rain = 0
KAM3 040036Z 19011KT 33/10 A2989 RMK A01 T03330095  RH  023%=      5-min Rain = 0
KAM3 040037Z 19010KT 33/10 A299 RMK A01 T03320096  RH  023%=      5-min Rain = 0
KAM3 040038Z 19010KT 33/10 A2989 RMK A01 T03310095  RH  023%=      5-min Rain = 0
KAM3 040039Z 19010KT 33/10 A2989 RMK A01 T03310095  RH  023%=      5-min Rain = 0
KAM3 040040Z 19009KT 33/10 A2989 RMK A01 T03310096  RH  024%=      5-min Rain = 0
KAM3 040041Z 20007KT 33/10 A299 RMK A01 T03310096  RH  024%=      5-min Rain = 0
KAM3 040042Z 20010KT 33/10 A2989 RMK A01 T03300096  RH  024%=      5-min Rain = 0
KAM3 040043Z 20010KT 33/10 A2989 RMK A01 T03290096  RH  024%=      5-min Rain = 0
KAM3 040044Z 19010KT 33/10 A2989 RMK A01 T03290095  RH  024%=      5-min Rain = 0
KAM3 040045Z 19010KT 33/10 A2989 RMK A01 T03290095  RH  024%=      5-min Rain = 0
KAM3 040046Z 19010KT 33/10 A299 RMK A01 T03290095  RH  024%=      5-min Rain = 0
KAM3 040047Z 19009KT 33/10 A299 RMK A01 T03290095  RH  024%=      5-min Rain = 0
KAM3 040048Z 19009KT 33/10 A299 RMK A01 T03290095  RH  024%=      5-min Rain = 0
KAM3 040049Z 19008KT 33/09 A2989 RMK A01 T03280094  RH  024%=      5-min Rain = 0
KAM3 040050Z 19008KT 33/09 A299 RMK A01 T03280094  RH  024%=      5-min Rain = 0
KAM3 040051Z 19008KT 33/10 A299 RMK A01 T03280095  RH  024%=      5-min Rain = 0
KAM3 040052Z 19008KT 33/10 A299 RMK A01 T03280095  RH  024%=      5-min Rain = 0
KAM3 040053Z 19007KT 33/10 A299 RMK A01 T03280095  RH  024%=      5-min Rain = 0
KAM3 040054Z 19008KT 33/10 A299 RMK A01 T03270095  RH  024%=      5-min Rain = 0
KAM3 040055Z 19008KT 33/10 A299 RMK A01 T03260095  RH  024%=      5-min Rain = 0
KAM3 040056Z 19008KT 33/10 A299 RMK A01 T03260095  RH  024%=      5-min Rain = 0
KAM3 040057Z 19008KT 33/09 A299 RMK A01 T03250094  RH  024%=      5-min Rain = 0
KAM3 040058Z 19006KT 33/09 A299 RMK A01 T03250094  RH  024%=      5-min Rain = 0
KAM3 040059Z 19006KT 33/10 A299 RMK A01 T03250095  RH  024%=      5-min Rain = 0
KAM3 040100Z 19007KT 32/10 A2989 RMK A01 T03240095  RH  024%=      5-min Rain = 0
KAM3 040101Z 19007KT 32/09 A2989 RMK A01 T03230094  RH  024%=      5-min Rain = 0
KAM3 040102Z 18007KT 32/09 A2989 RMK A01 T03230094  RH  024%=      5-min Rain = 0
KAM3 040103Z 19007KT 32/09 A2989 RMK A01 T03230094  RH  024%=      5-min Rain = 0
KAM3 040104Z 18007KT 32/09 A299 RMK A01 T03230094  RH  024%=      5-min Rain = 0
KAM3 040105Z 18007KT 32/10 A299 RMK A01 T03220095  RH  025%=      5-min Rain = 0
KAM3 040106Z 19007KT 32/10 A299 RMK A01 T03210095  RH  025%=      5-min Rain = 0
KAM3 040107Z 18007KT 32/10 A299 RMK A01 T03210095  RH  025%=      5-min Rain = 0
KAM3 040108Z 18007KT 32/10 A299 RMK A01 T03200095  RH  025%=      5-min Rain = 0
KAM3 040109Z 18007KT 32/10 A299 RMK A01 T03200095  RH  025%=      5-min Rain = 0
KAM3 040110Z 18007KT 32/10 A299 RMK A01 T03190095  RH  025%=      5-min Rain = 0
KAM3 040111Z 18007KT 32/10 A299 RMK A01 T03190095  RH  025%=      5-min Rain = 0
KAM3 040112Z 17007KT 32/10 A299 RMK A01 T03190095  RH  025%=      5-min Rain = 0
KAM3 040113Z 17008KT 32/10 A299 RMK A01 T03180095  RH  025%=      5-min Rain = 0
KAM3 040114Z 17008KT 32/10 A299 RMK A01 T03180095  RH  025%=      5-min Rain = 0
KAM3 040115Z 16009KT 32/10 A299 RMK A01 T03170095  RH  025%=      5-min Rain = 0
KAM3 040116Z 16009KT 32/10 A299 RMK A01 T03170096  RH  026%=      5-min Rain = 0
KAM3 040117Z 16008KT 32/10 A299 RMK A01 T03160096  RH  026%=      5-min Rain = 0
KAM3 040118Z 16007KT 32/10 A299 RMK A01 T03160097  RH  026%=      5-min Rain = 0
KAM3 040119Z 16007KT 32/10 A299 RMK A01 T03160100  RH  026%=      5-min Rain = 0
KAM3 040120Z 16008KT 32/10 A299 RMK A01 T03150104  RH  027%=      5-min Rain = 0
KAM3 040121Z 16009KT 31/11 A299 RMK A01 T03140107  RH  028%=      5-min Rain = 0
KAM3 040122Z 16010KT 31/11 A299 RMK A01 T03140108  RH  028%=      5-min Rain = 0
KAM3 040123Z 15009KT 31/11 A299 RMK A01 T03140109  RH  028%=      5-min Rain = 0
KAM3 040124Z 16009KT 31/11 A299 RMK A01 T03140109  RH  028%=      5-min Rain = 0
KAM3 040125Z 15008KT 31/11 A299 RMK A01 T03130110  RH  029%=      5-min Rain = 0
KAM3 040126Z 15010KT 31/11 A299 RMK A01 T03130111  RH  029%=      5-min Rain = 0
KAM3 040127Z 15010KT 31/11 A299 RMK A01 T03130113  RH  029%=      5-min Rain = 0
KAM3 040128Z 15011KT 31/12 A299 RMK A01 T03120116  RH  030%=      5-min Rain = 0
KAM3 040129Z 15010KT 31/12 A299 RMK A01 T03120118  RH  030%=      5-min Rain = 0
KAM3 040130Z 14009KT 31/12 A299 RMK A01 T03110118  RH  031%=      5-min Rain = 0
KAM3 040131Z 14008KT 31/12 A299 RMK A01 T03100119  RH  031%=      5-min Rain = 0
KAM3 040132Z 15008KT 31/12 A299 RMK A01 T03090119  RH  031%=      5-min Rain = 0
KAM3 040133Z 14008KT 31/12 A299 RMK A01 T03080120  RH  032%=      5-min Rain = 0
KAM3 040134Z 15010KT 31/12 A299 RMK A01 T03080121  RH  032%=      5-min Rain = 0
KAM3 040135Z 15009KT 31/12 A299 RMK A01 T03070122  RH  032%=      5-min Rain = 0
KAM3 040136Z 15009KT 31/12 A299 RMK A01 T03070122  RH  032%=      5-min Rain = 0
KAM3 040137Z 15009KT 31/12 A299 RMK A01 T03060123  RH  033%=      5-min Rain = 0
KAM3 040138Z 15009KT 31/12 A299 RMK A01 T03060124  RH  033%=      5-min Rain = 0
KAM3 040139Z 16008KT 31/13 A299 RMK A01 T03050125  RH  033%=      5-min Rain = 0
KAM3 040140Z 15009KT 31/13 A299 RMK A01 T03050125  RH  033%=      5-min Rain = 0
KAM3 040141Z 15009KT 30/13 A299 RMK A01 T03040126  RH  033%=      5-min Rain = 0
KAM3 040142Z 15009KT 30/13 A299 RMK A01 T03040127  RH  034%=      5-min Rain = 0
KAM3 040143Z 15009KT 30/13 A299 RMK A01 T03040127  RH  034%=      5-min Rain = 0
KAM3 040144Z 15009KT 30/13 A299 RMK A01 T03030128  RH  034%=      5-min Rain = 0
KAM3 040145Z 15009KT 30/13 A299 RMK A01 T03020129  RH  034%=      5-min Rain = 0
KAM3 040146Z 15010KT 30/13 A299 RMK A01 T03020130  RH  035%=      5-min Rain = 0
KAM3 040147Z 15009KT 30/13 A299 RMK A01 T03020130  RH  035%=      5-min Rain = 0
KAM3 040148Z 15008KT 30/13 A299 RMK A01 T03010131  RH  035%=      5-min Rain = 0
KAM3 040149Z 15008KT 30/13 A299 RMK A01 T03000131  RH  036%=      5-min Rain = 0
KAM3 040150Z 15009KT 30/13 A299 RMK A01 T02990131  RH  036%=      5-min Rain = 0
KAM3 040151Z 15009KT 30/13 A299 RMK A01 T02990130  RH  035%=      5-min Rain = 0
KAM3 040152Z 15008KT 30/13 A299 RMK A01 T02990130  RH  035%=      5-min Rain = 0
KAM3 040153Z 15008KT 30/13 A299 RMK A01 T02990131  RH  036%=      5-min Rain = 0
KAM3 040154Z 15010KT 30/13 A299 RMK A01 T02980130  RH  036%=      5-min Rain = 0
KAM3 040155Z 15008KT 30/13 A299 RMK A01 T02980130  RH  036%=      5-min Rain = 0
KAM3 040156Z 15008KT 30/13 A2991 RMK A01 T02970130  RH  036%=      5-min Rain = 0
KAM3 040157Z 15008KT 30/13 A2991 RMK A01 T02970129  RH  036%=      5-min Rain = 0
KAM3 040158Z 16009KT 30/13 A2991 RMK A01 T02960128  RH  035%=      5-min Rain = 0
KAM3 040159Z 15007KT 30/13 A2991 RMK A01 T02970128  RH  035%=      5-min Rain = 0
KAM3 040200Z 15008KT 30/13 A2991 RMK A01 T02970127  RH  035%=      5-min Rain = 0
KAM3 040201Z 16006KT 30/13 A2991 RMK A01 T02980127  RH  035%=      5-min Rain = 0
KAM3 040202Z 16006KT 30/13 A2991 RMK A01 T02980127  RH  035%=      5-min Rain = 0
KAM3 040203Z 16005KT 30/13 A2991 RMK A01 T02970127  RH  035%=      5-min Rain = 0
KAM3 040204Z 17005KT 30/13 A2992 RMK A01 T02970125  RH  035%=      5-min Rain = 0
KAM3 040205Z 18003KT 30/13 A2992 RMK A01 T02980125  RH  034%=      5-min Rain = 0
KAM3 040206Z 21004KT 30/12 A2993 RMK A01 T02980123  RH  034%=      5-min Rain = 0
KAM3 040207Z 31008G15KT 30/13 A2994 RMK A01 T02990125  RH  034%=      5-min Rain = 0
KAM3 040208Z 32016KT 30/13 A2995 RMK A01 T02980129  RH  035%=      5-min Rain = 0
KAM3 040209Z 32018G25KT 30/13 A2996 RMK A01 T02970125  RH  035%=      5-min Rain = 0
KAM3 040210Z 32020G28KT 29/12 A2996 RMK A01 T02940119  RH  034%=      5-min Rain = 0
KAM3 040211Z 31019G25KT 28/13 A2996 RMK A01 T02830127  RH  038%=      5-min Rain = 0
KAM3 040212Z 31021KT 27/13 A2996 RMK A01 T02720134  RH  042%=      5-min Rain = 0
KAM3 040213Z 32024KT 26/14 A2996 RMK A01 T02630137  RH  046%=      5-min Rain = 0
KAM3 040214Z 32025G31KT 25/15 A2996 RMK A01 T02540145  RH  051%=      5-min Rain = 0
KAM3 040215Z 33024KT 24/15 A2997 RMK A01 T02430150  RH  056%=      5-min Rain = 0
KAM3 040216Z 32028G34KT 23/15 A2996 RMK A01 T02320153  RH  061%=      5-min Rain = 0
KAM3 040217Z 33029G34KT 22/16 A2996 RMK A01 T02210157  RH  067%=      5-min Rain = 0
KAM3 040218Z 34034G40KT 21/16 A2996 RMK A01 T02140155  RH  069%=      5-min Rain = 0.01
KAM3 040219Z 34032G38KT 21/16 A2997 RMK A01 T02110156  RH  071%=      5-min Rain = 0
KAM3 040220Z 35033G39KT 21/15 A2998 RMK A01 T02070153  RH  071%=      5-min Rain = 0
KAM3 040221Z 35029G37KT 21/15 A2999 RMK A01 T02050153  RH  072%=      5-min Rain = 0
KAM3 040222Z 35026G34KT 20/15 A2999 RMK A01 T02030153  RH  073%=      5-min Rain = 0
KAM3 040223Z 34028G33KT 20/15 A2999 RMK A01 T02020151  RH  073%=      5-min Rain = 0
KAM3 040224Z 34026KT 20/15 A2999 RMK A01 T02020151  RH  072%=      5-min Rain = 0
KAM3 040225Z 34027KT 20/15 A2999 RMK A01 T02010149  RH  072%=      5-min Rain = 0
KAM3 040226Z 34021KT 20/15 A30 RMK A01 T02010151  RH  073%=      5-min Rain = 0
KAM3 040227Z 34021G26KT 20/15 A30 RMK A01 T02000152  RH  074%=      5-min Rain = 0.01
KAM3 040228Z 34018KT 20/15 A30 RMK A01 T02000152  RH  074%=      5-min Rain = 0
KAM3 040229Z 34018G23KT 20/15 A30 RMK A01 T02000153  RH  075%=      5-min Rain = 0
KAM3 040230Z 34021KT 20/15 A30 RMK A01 T01990152  RH  075%=      5-min Rain = 0
KAM3 040231Z 34020G26KT 20/15 A30 RMK A01 T01990152  RH  075%=      5-min Rain = 0
KAM3 040232Z 34018KT 20/15 A3001 RMK A01 T01990154  RH  075%=      5-min Rain = 0.01
KAM3 040233Z 35018G23KT 20/15 A3001 RMK A01 T01980153  RH  075%=      5-min Rain = 0.01
KAM3 040234Z 35017KT 20/15 A30 RMK A01 T01980151  RH  074%=      5-min Rain = 0.01
KAM3 040235Z 36017KT 20/15 A30 RMK A01 T01980152  RH  074%=      5-min Rain = 0
KAM3 040236Z 35017KT 20/15 A30 RMK A01 T01990154  RH  075%=      5-min Rain = 0
KAM3 040237Z 35017G22KT 20/16 A30 RMK A01 T01990155  RH  076%=      5-min Rain = 0
KAM3 040238Z 35017KT 20/16 A30 RMK A01 T01980155  RH  076%=      5-min Rain = 0
KAM3 040239Z 35018G24KT 20/15 A30 RMK A01 T02000152  RH  074%=      5-min Rain = 0
KAM3 040240Z 35020G26KT 20/15 A30 RMK A01 T02030152  RH  072%=      5-min Rain = 0
KAM3 040241Z 36023G29KT 20/15 A30 RMK A01 T02040150  RH  071%=      5-min Rain = 0
KAM3 040242Z 00021G29KT 21/15 A30 RMK A01 T02070148  RH  069%=      5-min Rain = 0
KAM3 040243Z 00020KT 21/15 A30 RMK A01 T02070148  RH  068%=      5-min Rain = 0
KAM3 040244Z 00019G28KT 21/15 A30 RMK A01 T02070152  RH  071%=      5-min Rain = 0
KAM3 040245Z 01019G25KT 21/15 A30 RMK A01 T02070150  RH  070%=      5-min Rain = 0
KAM3 040246Z 01020G25KT 21/15 A30 RMK A01 T02070148  RH  069%=      5-min Rain = 0
KAM3 040247Z 01023G28KT 21/15 A30 RMK A01 T02090148  RH  068%=      5-min Rain = 0
KAM3 040248Z 00019KT 21/15 A30 RMK A01 T02110148  RH  067%=      5-min Rain = 0
KAM3 040249Z 00019KT 21/15 A30 RMK A01 T02110147  RH  067%=      5-min Rain = 0
KAM3 040250Z 01018KT 21/15 A30 RMK A01 T02110149  RH  068%=      5-min Rain = 0
KAM3 040251Z 00017G23KT 21/15 A30 RMK A01 T02110148  RH  067%=      5-min Rain = 0
KAM3 040252Z 01018G25KT 21/15 A30 RMK A01 T02100148  RH  067%=      5-min Rain = 0
KAM3 040253Z 01019G24KT 21/15 A30 RMK A01 T02100150  RH  069%=      5-min Rain = 0
KAM3 040254Z 02017KT 21/15 A30 RMK A01 T02090150  RH  069%=      5-min Rain = 0
KAM3 040255Z 01017KT 21/15 A30 RMK A01 T02080151  RH  070%=      5-min Rain = 0
KAM3 040256Z 02020KT 21/15 A30 RMK A01 T02070151  RH  070%=      5-min Rain = 0
KAM3 040257Z 02019KT 21/15 A30 RMK A01 T02060151  RH  071%=      5-min Rain = 0
KAM3 040258Z 02020KT 21/15 A2999 RMK A01 T02060151  RH  071%=      5-min Rain = 0
KAM3 040259Z 02020G25KT 21/15 A2999 RMK A01 T02060152  RH  071%=      5-min Rain = 0
KAM3 040300Z 02020KT 21/15 A2999 RMK A01 T02050150  RH  071%=      5-min Rain = 0
KAM3 040301Z 02020KT 21/15 A2999 RMK A01 T02050149  RH  070%=      5-min Rain = 0
KAM3 040302Z 02021G27KT 21/15 A2999 RMK A01 T02060145  RH  068%=      5-min Rain = 0
KAM3 040303Z 02020KT 21/14 A2999 RMK A01 T02080143  RH  066%=      5-min Rain = 0
KAM3 040304Z 02020KT 21/14 A2999 RMK A01 T02100142  RH  065%=      5-min Rain = 0
KAM3 040305Z 02018KT 21/14 A2999 RMK A01 T02120141  RH  064%=      5-min Rain = 0
KAM3 040306Z 02018KT 21/14 A2999 RMK A01 T02120142  RH  064%=      5-min Rain = 0
KAM3 040307Z 02018KT 21/14 A30 RMK A01 T02120141  RH  064%=      5-min Rain = 0
KAM3 040308Z 02018KT 21/14 A30 RMK A01 T02120141  RH  064%=      5-min Rain = 0
KAM3 040309Z 01018KT 21/14 A30 RMK A01 T02130143  RH  064%=      5-min Rain = 0
KAM3 040310Z 02017KT 21/14 A30 RMK A01 T02130142  RH  064%=      5-min Rain = 0
KAM3 040311Z 02017KT 21/14 A30 RMK A01 T02130141  RH  064%=      5-min Rain = 0
KAM3 040312Z 02016KT 21/14 A30 RMK A01 T02130140  RH  063%=      5-min Rain = 0
KAM3 040313Z 02017KT 21/14 A30 RMK A01 T02140142  RH  064%=      5-min Rain = 0
KAM3 040314Z 02020KT 21/14 A30 RMK A01 T02140138  RH  062%=      5-min Rain = 0
KAM3 040315Z 02020KT 22/14 A30 RMK A01 T02160139  RH  061%=      5-min Rain = 0
KAM3 040316Z 02023G28KT 22/14 A30 RMK A01 T02170138  RH  061%=      5-min Rain = 0
KAM3 040317Z 03020KT 22/14 A30 RMK A01 T02180137  RH  060%=      5-min Rain = 0
KAM3 040318Z 03023KT 22/14 A2999 RMK A01 T02180137  RH  060%=      5-min Rain = 0
KAM3 040319Z 03020KT 22/14 A2999 RMK A01 T02190136  RH  059%=      5-min Rain = 0
KAM3 040320Z 03022KT 22/14 A2999 RMK A01 T02200136  RH  059%=      5-min Rain = 0
KAM3 040321Z 03024KT 22/13 A2999 RMK A01 T02210133  RH  057%=      5-min Rain = 0
KAM3 040322Z 04020KT 22/14 A2999 RMK A01 T02220136  RH  058%=      5-min Rain = 0
KAM3 040323Z 04019KT 22/14 A2998 RMK A01 T02210138  RH  059%=      5-min Rain = 0
KAM3 040324Z 04021G27KT 22/14 A2998 RMK A01 T02190140  RH  061%=      5-min Rain = 0
KAM3 040325Z 05022G27KT 22/14 A2997 RMK A01 T02160142  RH  063%=      5-min Rain = 0.01
KAM3 040326Z 05023KT 21/14 A2997 RMK A01 T02120143  RH  065%=      5-min Rain = 0
KAM3 040327Z 05022KT 21/14 A2997 RMK A01 T02100143  RH  066%=      5-min Rain = 0
KAM3 040328Z 06025G32KT 21/14 A2996 RMK A01 T02090140  RH  065%=      5-min Rain = 0
KAM3 040329Z 05026G32KT 21/14 A2996 RMK A01 T02110137  RH  062%=      5-min Rain = 0
KAM3 040330Z 06027KT 21/14 A2996 RMK A01 T02140136  RH  061%=      5-min Rain = 0
KAM3 040331Z 06024KT 22/14 A2995 RMK A01 T02150136  RH  060%=      5-min Rain = 0
KAM3 040332Z 06023KT 22/14 A2995 RMK A01 T02150136  RH  060%=      5-min Rain = 0
KAM3 040333Z 06023KT 22/13 A2995 RMK A01 T02160134  RH  060%=      5-min Rain = 0
KAM3 040334Z 07022KT 22/14 A2995 RMK A01 T02170135  RH  060%=      5-min Rain = 0
KAM3 040335Z 07023KT 22/13 A2995 RMK A01 T02170134  RH  059%=      5-min Rain = 0
KAM3 040336Z 07022KT 22/14 A2995 RMK A01 T02190135  RH  059%=      5-min Rain = 0
KAM3 040337Z 07021KT 22/14 A2995 RMK A01 T02190136  RH  059%=      5-min Rain = 0
KAM3 040338Z 07020G25KT 22/14 A2995 RMK A01 T02180135  RH  059%=      5-min Rain = 0
KAM3 040339Z 08021KT 22/13 A2995 RMK A01 T02190133  RH  058%=      5-min Rain = 0
KAM3 040340Z 07020KT 22/13 A2995 RMK A01 T02200131  RH  057%=      5-min Rain = 0
KAM3 040341Z 08021KT 22/13 A2995 RMK A01 T02230131  RH  056%=      5-min Rain = 0
KAM3 040342Z 08020G26KT 22/13 A2995 RMK A01 T02240132  RH  056%=      5-min Rain = 0
KAM3 040343Z 09018KT 23/13 A2995 RMK A01 T02250131  RH  055%=      5-min Rain = 0
KAM3 040344Z 09017KT 22/13 A2994 RMK A01 T02240132  RH  056%=      5-min Rain = 0
KAM3 040345Z 09017KT 22/13 A2994 RMK A01 T02240131  RH  056%=      5-min Rain = 0
KAM3 040346Z 09018KT 22/13 A2995 RMK A01 T02240131  RH  056%=      5-min Rain = 0
KAM3 040347Z 08017KT 23/13 A2995 RMK A01 T02250128  RH  054%=      5-min Rain = 0
KAM3 040348Z 09015G20KT 23/13 A2995 RMK A01 T02270129  RH  054%=      5-min Rain = 0
KAM3 040349Z 09017KT 23/13 A2995 RMK A01 T02290126  RH  052%=      5-min Rain = 0
KAM3 040350Z 09016KT 23/13 A2995 RMK A01 T02310126  RH  052%=      5-min Rain = 0
KAM3 040351Z 09015KT 23/13 A2995 RMK A01 T02330127  RH  051%=      5-min Rain = 0
KAM3 040352Z 09013KT 23/13 A2995 RMK A01 T02330129  RH  052%=      5-min Rain = 0
KAM3 040353Z 10015KT 23/13 A2995 RMK A01 T02330128  RH  052%=      5-min Rain = 0
KAM3 040354Z 10015KT 23/13 A2995 RMK A01 T02330127  RH  051%=      5-min Rain = 0
KAM3 040355Z 10015KT 23/13 A2995 RMK A01 T02340128  RH  051%=      5-min Rain = 0
KAM3 040356Z 10013KT 23/13 A2995 RMK A01 T02340126  RH  051%=      5-min Rain = 0
KAM3 040357Z 10013KT 24/13 A2995 RMK A01 T02350127  RH  051%=      5-min Rain = 0
KAM3 040358Z 11014KT 24/13 A2995 RMK A01 T02350126  RH  050%=      5-min Rain = 0
KAM3 040359Z 11014KT 24/13 A2995 RMK A01 T02370125  RH  049%=      5-min Rain = 0
KAM3 040400Z 11012KT 24/13 A2995 RMK A01 T02380125  RH  049%=      5-min Rain = 0
KAM3 040401Z 11011KT 24/13 A2995 RMK A01 T02390126  RH  049%=      5-min Rain = 0
KAM3 040402Z 11011KT 24/12 A2996 RMK A01 T02390124  RH  048%=      5-min Rain = 0
KAM3 040403Z 11010KT 24/12 A2996 RMK A01 T02390123  RH  048%=      5-min Rain = 0
KAM3 040404Z 09010KT 24/13 A2996 RMK A01 T02390127  RH  049%=      5-min Rain = 0
KAM3 040405Z 06012KT 24/13 A2997 RMK A01 T02370129  RH  051%=      5-min Rain = 0
KAM3 040406Z 07014KT 23/13 A2997 RMK A01 T02340131  RH  052%=      5-min Rain = 0
KAM3 040407Z 07014KT 23/13 A2997 RMK A01 T02330127  RH  051%=      5-min Rain = 0
KAM3 040408Z 08014KT 23/13 A2996 RMK A01 T02340128  RH  051%=      5-min Rain = 0
KAM3 040409Z 09013KT 23/13 A2996 RMK A01 T02340129  RH  051%=      5-min Rain = 0
KAM3 040410Z 09012KT 23/13 A2996 RMK A01 T02340128  RH  051%=      5-min Rain = 0
KAM3 040411Z 08013KT 24/12 A2996 RMK A01 T02350122  RH  049%=      5-min Rain = 0
KAM3 040412Z 08011KT 24/12 A2996 RMK A01 T02400120  RH  047%=      5-min Rain = 0
KAM3 040413Z 09010KT 24/12 A2996 RMK A01 T02420123  RH  047%=      5-min Rain = 0
KAM3 040414Z 07009KT 24/13 A2996 RMK A01 T02410127  RH  049%=      5-min Rain = 0
KAM3 040415Z 04008KT 24/13 A2997 RMK A01 T02380130  RH  051%=      5-min Rain = 0
KAM3 040416Z 05009KT 24/13 A2997 RMK A01 T02360130  RH  052%=      5-min Rain = 0
KAM3 040417Z 06008KT 23/13 A2996 RMK A01 T02340130  RH  052%=      5-min Rain = 0
KAM3 040418Z 06008KT 23/13 A2996 RMK A01 T02330129  RH  052%=      5-min Rain = 0
KAM3 040419Z 07008KT 23/13 A2996 RMK A01 T02320130  RH  053%=      5-min Rain = 0
KAM3 040420Z 07010KT 23/13 A2996 RMK A01 T02320127  RH  052%=      5-min Rain = 0
KAM3 040421Z 08011KT 23/13 A2997 RMK A01 T02330127  RH  051%=      5-min Rain = 0
KAM3 040422Z 09008KT 23/13 A2996 RMK A01 T02340125  RH  051%=      5-min Rain = 0
KAM3 040423Z 09007KT 23/13 A2997 RMK A01 T02340128  RH  051%=      5-min Rain = 0
KAM3 040424Z 09007KT 23/13 A2997 RMK A01 T02340129  RH  052%=      5-min Rain = 0
KAM3 040425Z 10006KT 23/13 A2997 RMK A01 T02320129  RH  052%=      5-min Rain = 0
KAM3 040426Z 10007KT 23/13 A2997 RMK A01 T02310128  RH  052%=      5-min Rain = 0
KAM3 040427Z 09007KT 23/13 A2997 RMK A01 T02300130  RH  053%=      5-min Rain = 0
KAM3 040428Z 09007KT 23/13 A2997 RMK A01 T02290131  RH  054%=      5-min Rain = 0
KAM3 040429Z 08008KT 23/13 A2997 RMK A01 T02270131  RH  055%=      5-min Rain = 0
KAM3 040430Z 08009KT 23/13 A2997 RMK A01 T02260129  RH  054%=      5-min Rain = 0
KAM3 040431Z 08009KT 23/13 A2997 RMK A01 T02270128  RH  054%=      5-min Rain = 0
KAM3 040432Z 08009KT 23/13 A2997 RMK A01 T02280128  RH  053%=      5-min Rain = 0
KAM3 040433Z 07009KT 23/13 A2997 RMK A01 T02280128  RH  053%=      5-min Rain = 0
KAM3 040434Z 07009KT 23/13 A2997 RMK A01 T02280130  RH  054%=      5-min Rain = 0
KAM3 040435Z 06008KT 23/13 A2996 RMK A01 T02280131  RH  054%=      5-min Rain = 0
KAM3 040436Z 06008KT 23/13 A2997 RMK A01 T02260132  RH  055%=      5-min Rain = 0
KAM3 040437Z 07009KT 23/13 A2997 RMK A01 T02250133  RH  056%=      5-min Rain = 0
KAM3 040438Z 06010KT 22/13 A2997 RMK A01 T02240133  RH  057%=      5-min Rain = 0
KAM3 040439Z 05009KT 22/13 A2997 RMK A01 T02230132  RH  056%=      5-min Rain = 0
KAM3 040440Z 05008KT 22/13 A2996 RMK A01 T02230133  RH  057%=      5-min Rain = 0
KAM3 040441Z 05009KT 22/13 A2996 RMK A01 T02230134  RH  057%=      5-min Rain = 0
KAM3 040442Z 05009KT 22/14 A2997 RMK A01 T02230135  RH  057%=      5-min Rain = 0
KAM3 040443Z 06008KT 22/14 A2997 RMK A01 T02220136  RH  058%=      5-min Rain = 0
KAM3 040444Z 06008KT 22/14 A2997 RMK A01 T02200136  RH  059%=      5-min Rain = 0
KAM3 040445Z 06008KT 22/14 A2997 RMK A01 T02190136  RH  059%=      5-min Rain = 0
KAM3 040446Z 06008KT 22/14 A2997 RMK A01 T02190138  RH  060%=      5-min Rain = 0
KAM3 040447Z 06008KT 22/14 A2996 RMK A01 T02170138  RH  060%=      5-min Rain = 0
KAM3 040448Z 07007KT 22/14 A2996 RMK A01 T02170138  RH  061%=      5-min Rain = 0
KAM3 040449Z 07006KT 22/14 A2996 RMK A01 T02160140  RH  062%=      5-min Rain = 0
KAM3 040450Z 07007KT 21/14 A2996 RMK A01 T02140140  RH  063%=      5-min Rain = 0
KAM3 040451Z 07007KT 21/14 A2996 RMK A01 T02130142  RH  064%=      5-min Rain = 0
KAM3 040452Z 07007KT 21/14 A2996 RMK A01 T02120140  RH  064%=      5-min Rain = 0
KAM3 040453Z 08007KT 21/14 A2996 RMK A01 T02120139  RH  063%=      5-min Rain = 0
KAM3 040454Z 08006KT 21/14 A2996 RMK A01 T02120139  RH  063%=      5-min Rain = 0
KAM3 040455Z 09006KT 21/14 A2996 RMK A01 T02130139  RH  062%=      5-min Rain = 0
KAM3 040456Z 09006KT 21/14 A2996 RMK A01 T02140137  RH  062%=      5-min Rain = 0
KAM3 040457Z 10007KT 22/14 A2995 RMK A01 T02150136  RH  061%=      5-min Rain = 0
KAM3 040458Z 10007KT 22/14 A2995 RMK A01 T02160135  RH  060%=      5-min Rain = 0
KAM3 040459Z 12007KT 22/14 A2995 RMK A01 T02170135  RH  059%=      5-min Rain = 0

Page generated in 0.0773 seconds.